<?xml version="1.0" encoding="UTF-8" standalone="no" ?>
<gpx xmlns="http://www.topografix.com/GPX/1/1" xmlns:xsi="http://www.w3.org/2001/XMLSchema-instance" xsi:schemaLocation="http://www.topografix.com/GPX/1/1 http://www.topografix.com/GPX/1/1/gpx.xsd" version="1.1" creator="VisuGPX - https://www.visugpx.com">
  <metadata>
    <name>Seillon-Esparon </name>
    <desc><![CDATA[De Seillon à Esparon, 28Km (itinéraire facile)]]></desc>
  </metadata>
  <trk>
    <name><![CDATA[20180322232750-8m7Mc]]></name>
    <trkseg>
      <trkpt lat="43.50367" lon="5.88678">
        <ele>309</ele>
        <time>2018-02-04T07:13:31Z</time>
      </trkpt>
      <trkpt lat="43.50375" lon="5.88653">
        <ele>311</ele>
        <time>2018-02-04T07:17:38Z</time>
      </trkpt>
      <trkpt lat="43.5039" lon="5.88638">
        <ele>312</ele>
        <time>2018-02-04T07:17:48Z</time>
      </trkpt>
      <trkpt lat="43.50406" lon="5.88628">
        <ele>313</ele>
        <time>2018-02-04T07:17:57Z</time>
      </trkpt>
      <trkpt lat="43.50424" lon="5.88617">
        <ele>317</ele>
        <time>2018-02-04T07:18:08Z</time>
      </trkpt>
      <trkpt lat="43.50442" lon="5.88607">
        <ele>317</ele>
        <time>2018-02-04T07:18:19Z</time>
      </trkpt>
      <trkpt lat="43.50459" lon="5.88594">
        <ele>317</ele>
        <time>2018-02-04T07:18:29Z</time>
      </trkpt>
      <trkpt lat="43.50475" lon="5.88583">
        <ele>319</ele>
        <time>2018-02-04T07:18:38Z</time>
      </trkpt>
      <trkpt lat="43.50492" lon="5.88571">
        <ele>318</ele>
        <time>2018-02-04T07:18:47Z</time>
      </trkpt>
      <trkpt lat="43.50508" lon="5.88557">
        <ele>320</ele>
        <time>2018-02-04T07:18:57Z</time>
      </trkpt>
      <trkpt lat="43.50524" lon="5.8854">
        <ele>322</ele>
        <time>2018-02-04T07:19:07Z</time>
      </trkpt>
      <trkpt lat="43.50536" lon="5.88522">
        <ele>322</ele>
        <time>2018-02-04T07:19:17Z</time>
      </trkpt>
      <trkpt lat="43.5055" lon="5.88506">
        <ele>322</ele>
        <time>2018-02-04T07:19:26Z</time>
      </trkpt>
      <trkpt lat="43.50564" lon="5.88489">
        <ele>325</ele>
        <time>2018-02-04T07:19:34Z</time>
      </trkpt>
      <trkpt lat="43.5058" lon="5.88475">
        <ele>325</ele>
        <time>2018-02-04T07:19:42Z</time>
      </trkpt>
      <trkpt lat="43.50598" lon="5.88461">
        <ele>324</ele>
        <time>2018-02-04T07:19:51Z</time>
      </trkpt>
      <trkpt lat="43.50617" lon="5.88457">
        <ele>324</ele>
        <time>2018-02-04T07:19:59Z</time>
      </trkpt>
      <trkpt lat="43.50635" lon="5.8845">
        <ele>324</ele>
        <time>2018-02-04T07:20:08Z</time>
      </trkpt>
      <trkpt lat="43.50654" lon="5.88443">
        <ele>323</ele>
        <time>2018-02-04T07:20:17Z</time>
      </trkpt>
      <trkpt lat="43.50673" lon="5.88433">
        <ele>325</ele>
        <time>2018-02-04T07:20:25Z</time>
      </trkpt>
      <trkpt lat="43.50688" lon="5.88418">
        <ele>325</ele>
        <time>2018-02-04T07:20:33Z</time>
      </trkpt>
      <trkpt lat="43.50697" lon="5.88396">
        <ele>327</ele>
        <time>2018-02-04T07:20:43Z</time>
      </trkpt>
      <trkpt lat="43.5071" lon="5.88378">
        <ele>328</ele>
        <time>2018-02-04T07:20:52Z</time>
      </trkpt>
      <trkpt lat="43.50723" lon="5.88357">
        <ele>328</ele>
        <time>2018-02-04T07:21:01Z</time>
      </trkpt>
      <trkpt lat="43.50732" lon="5.88335">
        <ele>327</ele>
        <time>2018-02-04T07:21:08Z</time>
      </trkpt>
      <trkpt lat="43.50744" lon="5.88316">
        <ele>332</ele>
        <time>2018-02-04T07:21:17Z</time>
      </trkpt>
      <trkpt lat="43.50761" lon="5.88303">
        <ele>333</ele>
        <time>2018-02-04T07:21:27Z</time>
      </trkpt>
      <trkpt lat="43.50779" lon="5.88299">
        <ele>334</ele>
        <time>2018-02-04T07:21:38Z</time>
      </trkpt>
      <trkpt lat="43.50798" lon="5.88303">
        <ele>335</ele>
        <time>2018-02-04T07:21:46Z</time>
      </trkpt>
      <trkpt lat="43.50814" lon="5.88315">
        <ele>334</ele>
        <time>2018-02-04T07:21:54Z</time>
      </trkpt>
      <trkpt lat="43.5082" lon="5.88341">
        <ele>330</ele>
        <time>2018-02-04T07:22:04Z</time>
      </trkpt>
      <trkpt lat="43.50817" lon="5.88367">
        <ele>329</ele>
        <time>2018-02-04T07:22:13Z</time>
      </trkpt>
      <trkpt lat="43.50825" lon="5.88391">
        <ele>329</ele>
        <time>2018-02-04T07:22:23Z</time>
      </trkpt>
      <trkpt lat="43.50841" lon="5.88407">
        <ele>331</ele>
        <time>2018-02-04T07:22:32Z</time>
      </trkpt>
      <trkpt lat="43.50856" lon="5.88422">
        <ele>334</ele>
        <time>2018-02-04T07:22:40Z</time>
      </trkpt>
      <trkpt lat="43.50872" lon="5.88435">
        <ele>336</ele>
        <time>2018-02-04T07:22:49Z</time>
      </trkpt>
      <trkpt lat="43.50889" lon="5.88449">
        <ele>337</ele>
        <time>2018-02-04T07:22:58Z</time>
      </trkpt>
      <trkpt lat="43.50905" lon="5.88465">
        <ele>339</ele>
        <time>2018-02-04T07:23:07Z</time>
      </trkpt>
      <trkpt lat="43.50919" lon="5.88483">
        <ele>341</ele>
        <time>2018-02-04T07:23:17Z</time>
      </trkpt>
      <trkpt lat="43.50936" lon="5.88495">
        <ele>341</ele>
        <time>2018-02-04T07:23:27Z</time>
      </trkpt>
      <trkpt lat="43.50955" lon="5.88497">
        <ele>341</ele>
        <time>2018-02-04T07:23:36Z</time>
      </trkpt>
      <trkpt lat="43.50974" lon="5.88498">
        <ele>341</ele>
        <time>2018-02-04T07:23:46Z</time>
      </trkpt>
      <trkpt lat="43.50992" lon="5.88497">
        <ele>341</ele>
        <time>2018-02-04T07:23:55Z</time>
      </trkpt>
      <trkpt lat="43.51012" lon="5.88498">
        <ele>343</ele>
        <time>2018-02-04T07:24:05Z</time>
      </trkpt>
      <trkpt lat="43.51029" lon="5.88507">
        <ele>348</ele>
        <time>2018-02-04T07:24:15Z</time>
      </trkpt>
      <trkpt lat="43.51045" lon="5.88519">
        <ele>349</ele>
        <time>2018-02-04T07:24:24Z</time>
      </trkpt>
      <trkpt lat="43.51063" lon="5.88531">
        <ele>350</ele>
        <time>2018-02-04T07:24:34Z</time>
      </trkpt>
      <trkpt lat="43.51079" lon="5.88545">
        <ele>351</ele>
        <time>2018-02-04T07:24:43Z</time>
      </trkpt>
      <trkpt lat="43.51091" lon="5.88565">
        <ele>354</ele>
        <time>2018-02-04T07:24:52Z</time>
      </trkpt>
      <trkpt lat="43.51097" lon="5.88588">
        <ele>355</ele>
        <time>2018-02-04T07:25:01Z</time>
      </trkpt>
      <trkpt lat="43.51098" lon="5.88614">
        <ele>357</ele>
        <time>2018-02-04T07:25:10Z</time>
      </trkpt>
      <trkpt lat="43.51097" lon="5.88639">
        <ele>358</ele>
        <time>2018-02-04T07:25:19Z</time>
      </trkpt>
      <trkpt lat="43.51101" lon="5.88664">
        <ele>359</ele>
        <time>2018-02-04T07:25:30Z</time>
      </trkpt>
      <trkpt lat="43.51119" lon="5.88671">
        <ele>361</ele>
        <time>2018-02-04T07:25:39Z</time>
      </trkpt>
      <trkpt lat="43.51138" lon="5.88678">
        <ele>361</ele>
        <time>2018-02-04T07:25:48Z</time>
      </trkpt>
      <trkpt lat="43.51151" lon="5.88696">
        <ele>361</ele>
        <time>2018-02-04T07:25:59Z</time>
      </trkpt>
      <trkpt lat="43.51169" lon="5.88705">
        <ele>360</ele>
        <time>2018-02-04T07:26:10Z</time>
      </trkpt>
      <trkpt lat="43.51188" lon="5.8871">
        <ele>360</ele>
        <time>2018-02-04T07:26:21Z</time>
      </trkpt>
      <trkpt lat="43.51206" lon="5.88713">
        <ele>360</ele>
        <time>2018-02-04T07:26:32Z</time>
      </trkpt>
      <trkpt lat="43.51225" lon="5.88714">
        <ele>360</ele>
        <time>2018-02-04T07:26:43Z</time>
      </trkpt>
      <trkpt lat="43.51241" lon="5.88725">
        <ele>360</ele>
        <time>2018-02-04T07:26:56Z</time>
      </trkpt>
      <trkpt lat="43.51258" lon="5.88735">
        <ele>361</ele>
        <time>2018-02-04T07:27:09Z</time>
      </trkpt>
      <trkpt lat="43.51272" lon="5.88752">
        <ele>362</ele>
        <time>2018-02-04T07:27:22Z</time>
      </trkpt>
      <trkpt lat="43.51281" lon="5.88774">
        <ele>364</ele>
        <time>2018-02-04T07:27:34Z</time>
      </trkpt>
      <trkpt lat="43.51281" lon="5.88799">
        <ele>365</ele>
        <time>2018-02-04T07:27:45Z</time>
      </trkpt>
      <trkpt lat="43.51296" lon="5.88817">
        <ele>365</ele>
        <time>2018-02-04T07:27:56Z</time>
      </trkpt>
      <trkpt lat="43.51314" lon="5.88823">
        <ele>365</ele>
        <time>2018-02-04T07:28:11Z</time>
      </trkpt>
      <trkpt lat="43.51324" lon="5.88844">
        <ele>368</ele>
        <time>2018-02-04T07:28:28Z</time>
      </trkpt>
      <trkpt lat="43.51322" lon="5.88869">
        <ele>371</ele>
        <time>2018-02-04T07:28:40Z</time>
      </trkpt>
      <trkpt lat="43.51319" lon="5.88896">
        <ele>372</ele>
        <time>2018-02-04T07:28:54Z</time>
      </trkpt>
      <trkpt lat="43.51315" lon="5.8892">
        <ele>377</ele>
        <time>2018-02-04T07:29:05Z</time>
      </trkpt>
      <trkpt lat="43.5131" lon="5.88944">
        <ele>379</ele>
        <time>2018-02-04T07:29:18Z</time>
      </trkpt>
      <trkpt lat="43.51302" lon="5.88968">
        <ele>381</ele>
        <time>2018-02-04T07:29:33Z</time>
      </trkpt>
      <trkpt lat="43.51291" lon="5.8899">
        <ele>382</ele>
        <time>2018-02-04T07:29:47Z</time>
      </trkpt>
      <trkpt lat="43.5128" lon="5.8901">
        <ele>387</ele>
        <time>2018-02-04T07:29:58Z</time>
      </trkpt>
      <trkpt lat="43.51271" lon="5.89032">
        <ele>387</ele>
        <time>2018-02-04T07:30:12Z</time>
      </trkpt>
      <trkpt lat="43.51257" lon="5.89049">
        <ele>388</ele>
        <time>2018-02-04T07:30:28Z</time>
      </trkpt>
      <trkpt lat="43.51242" lon="5.89063">
        <ele>390</ele>
        <time>2018-02-04T07:30:38Z</time>
      </trkpt>
      <trkpt lat="43.51228" lon="5.89081">
        <ele>390</ele>
        <time>2018-02-04T07:30:51Z</time>
      </trkpt>
      <trkpt lat="43.51212" lon="5.89094">
        <ele>393</ele>
        <time>2018-02-04T07:31:02Z</time>
      </trkpt>
      <trkpt lat="43.51198" lon="5.89112">
        <ele>393</ele>
        <time>2018-02-04T07:31:15Z</time>
      </trkpt>
      <trkpt lat="43.51183" lon="5.89125">
        <ele>394</ele>
        <time>2018-02-04T07:31:25Z</time>
      </trkpt>
      <trkpt lat="43.5117" lon="5.89144">
        <ele>394</ele>
        <time>2018-02-04T07:31:39Z</time>
      </trkpt>
      <trkpt lat="43.51153" lon="5.89153">
        <ele>396</ele>
        <time>2018-02-04T07:31:52Z</time>
      </trkpt>
      <trkpt lat="43.51137" lon="5.89166">
        <ele>396</ele>
        <time>2018-02-04T07:32:06Z</time>
      </trkpt>
      <trkpt lat="43.51122" lon="5.89181">
        <ele>399</ele>
        <time>2018-02-04T07:32:17Z</time>
      </trkpt>
      <trkpt lat="43.51107" lon="5.89197">
        <ele>400</ele>
        <time>2018-02-04T07:32:28Z</time>
      </trkpt>
      <trkpt lat="43.51095" lon="5.89217">
        <ele>400</ele>
        <time>2018-02-04T07:32:41Z</time>
      </trkpt>
      <trkpt lat="43.51086" lon="5.8924">
        <ele>401</ele>
        <time>2018-02-04T07:32:52Z</time>
      </trkpt>
      <trkpt lat="43.51076" lon="5.89262">
        <ele>402</ele>
        <time>2018-02-04T07:33:03Z</time>
      </trkpt>
      <trkpt lat="43.51087" lon="5.89283">
        <ele>404</ele>
        <time>2018-02-04T07:33:41Z</time>
      </trkpt>
      <trkpt lat="43.51105" lon="5.8929">
        <ele>404</ele>
        <time>2018-02-04T07:33:53Z</time>
      </trkpt>
      <trkpt lat="43.51123" lon="5.89297">
        <ele>404</ele>
        <time>2018-02-04T07:34:05Z</time>
      </trkpt>
      <trkpt lat="43.51141" lon="5.89304">
        <ele>405</ele>
        <time>2018-02-04T07:34:16Z</time>
      </trkpt>
      <trkpt lat="43.5116" lon="5.89307">
        <ele>405</ele>
        <time>2018-02-04T07:34:26Z</time>
      </trkpt>
      <trkpt lat="43.51178" lon="5.89309">
        <ele>406</ele>
        <time>2018-02-04T07:34:38Z</time>
      </trkpt>
      <trkpt lat="43.51197" lon="5.89316">
        <ele>405</ele>
        <time>2018-02-04T07:34:49Z</time>
      </trkpt>
      <trkpt lat="43.5121" lon="5.89332">
        <ele>406</ele>
        <time>2018-02-04T07:35:00Z</time>
      </trkpt>
      <trkpt lat="43.51224" lon="5.89348">
        <ele>408</ele>
        <time>2018-02-04T07:35:10Z</time>
      </trkpt>
      <trkpt lat="43.51241" lon="5.89361">
        <ele>408</ele>
        <time>2018-02-04T07:35:20Z</time>
      </trkpt>
      <trkpt lat="43.51256" lon="5.89377">
        <ele>410</ele>
        <time>2018-02-04T07:35:32Z</time>
      </trkpt>
      <trkpt lat="43.51266" lon="5.89401">
        <ele>411</ele>
        <time>2018-02-04T07:35:43Z</time>
      </trkpt>
      <trkpt lat="43.51281" lon="5.89418">
        <ele>412</ele>
        <time>2018-02-04T07:35:55Z</time>
      </trkpt>
      <trkpt lat="43.51297" lon="5.89431">
        <ele>412</ele>
        <time>2018-02-04T07:36:05Z</time>
      </trkpt>
      <trkpt lat="43.51316" lon="5.89436">
        <ele>412</ele>
        <time>2018-02-04T07:36:15Z</time>
      </trkpt>
      <trkpt lat="43.51334" lon="5.89436">
        <ele>411</ele>
        <time>2018-02-04T07:36:23Z</time>
      </trkpt>
      <trkpt lat="43.51354" lon="5.89437">
        <ele>411</ele>
        <time>2018-02-04T07:36:31Z</time>
      </trkpt>
      <trkpt lat="43.51372" lon="5.89441">
        <ele>410</ele>
        <time>2018-02-04T07:36:37Z</time>
      </trkpt>
      <trkpt lat="43.51389" lon="5.89451">
        <ele>410</ele>
        <time>2018-02-04T07:36:44Z</time>
      </trkpt>
      <trkpt lat="43.51407" lon="5.89445">
        <ele>410</ele>
        <time>2018-02-04T07:38:27Z</time>
      </trkpt>
      <trkpt lat="43.51416" lon="5.89421">
        <ele>411</ele>
        <time>2018-02-04T07:38:39Z</time>
      </trkpt>
      <trkpt lat="43.51431" lon="5.89406">
        <ele>411</ele>
        <time>2018-02-04T07:38:47Z</time>
      </trkpt>
      <trkpt lat="43.51447" lon="5.89391">
        <ele>411</ele>
        <time>2018-02-04T07:38:55Z</time>
      </trkpt>
      <trkpt lat="43.51465" lon="5.89387">
        <ele>410</ele>
        <time>2018-02-04T07:39:02Z</time>
      </trkpt>
      <trkpt lat="43.51483" lon="5.89385">
        <ele>410</ele>
        <time>2018-02-04T07:39:08Z</time>
      </trkpt>
      <trkpt lat="43.51493" lon="5.89363">
        <ele>411</ele>
        <time>2018-02-04T07:39:22Z</time>
      </trkpt>
      <trkpt lat="43.51474" lon="5.89355">
        <ele>411</ele>
        <time>2018-02-04T07:39:34Z</time>
      </trkpt>
      <trkpt lat="43.51461" lon="5.89376">
        <ele>411</ele>
        <time>2018-02-04T07:39:42Z</time>
      </trkpt>
      <trkpt lat="43.51478" lon="5.89386">
        <ele>410</ele>
        <time>2018-02-04T07:39:53Z</time>
      </trkpt>
      <trkpt lat="43.51497" lon="5.89377">
        <ele>410</ele>
        <time>2018-02-04T07:40:01Z</time>
      </trkpt>
      <trkpt lat="43.51517" lon="5.89377">
        <ele>409</ele>
        <time>2018-02-04T07:40:08Z</time>
      </trkpt>
      <trkpt lat="43.51534" lon="5.89367">
        <ele>410</ele>
        <time>2018-02-04T07:40:15Z</time>
      </trkpt>
      <trkpt lat="43.5155" lon="5.89356">
        <ele>410</ele>
        <time>2018-02-04T07:40:22Z</time>
      </trkpt>
      <trkpt lat="43.51568" lon="5.89346">
        <ele>410</ele>
        <time>2018-02-04T07:40:29Z</time>
      </trkpt>
      <trkpt lat="43.51588" lon="5.89339">
        <ele>411</ele>
        <time>2018-02-04T07:40:37Z</time>
      </trkpt>
      <trkpt lat="43.51606" lon="5.8933">
        <ele>411</ele>
        <time>2018-02-04T07:40:45Z</time>
      </trkpt>
      <trkpt lat="43.51623" lon="5.89322">
        <ele>411</ele>
        <time>2018-02-04T07:40:52Z</time>
      </trkpt>
      <trkpt lat="43.51641" lon="5.89315">
        <ele>412</ele>
        <time>2018-02-04T07:41:00Z</time>
      </trkpt>
      <trkpt lat="43.51661" lon="5.89311">
        <ele>412</ele>
        <time>2018-02-04T07:41:09Z</time>
      </trkpt>
      <trkpt lat="43.5168" lon="5.89308">
        <ele>414</ele>
        <time>2018-02-04T07:41:18Z</time>
      </trkpt>
      <trkpt lat="43.51698" lon="5.89303">
        <ele>415</ele>
        <time>2018-02-04T07:41:27Z</time>
      </trkpt>
      <trkpt lat="43.51717" lon="5.893">
        <ele>415</ele>
        <time>2018-02-04T07:41:36Z</time>
      </trkpt>
      <trkpt lat="43.51735" lon="5.89294">
        <ele>416</ele>
        <time>2018-02-04T07:41:45Z</time>
      </trkpt>
      <trkpt lat="43.51755" lon="5.89292">
        <ele>419</ele>
        <time>2018-02-04T07:41:54Z</time>
      </trkpt>
      <trkpt lat="43.51773" lon="5.89287">
        <ele>419</ele>
        <time>2018-02-04T07:42:03Z</time>
      </trkpt>
      <trkpt lat="43.51788" lon="5.89273">
        <ele>420</ele>
        <time>2018-02-04T07:42:11Z</time>
      </trkpt>
      <trkpt lat="43.51801" lon="5.89254">
        <ele>420</ele>
        <time>2018-02-04T07:42:19Z</time>
      </trkpt>
      <trkpt lat="43.51815" lon="5.89237">
        <ele>420</ele>
        <time>2018-02-04T07:42:28Z</time>
      </trkpt>
      <trkpt lat="43.51833" lon="5.8924">
        <ele>421</ele>
        <time>2018-02-04T07:42:41Z</time>
      </trkpt>
      <trkpt lat="43.51843" lon="5.89263">
        <ele>424</ele>
        <time>2018-02-04T07:42:53Z</time>
      </trkpt>
      <trkpt lat="43.51861" lon="5.89263">
        <ele>425</ele>
        <time>2018-02-04T07:43:07Z</time>
      </trkpt>
      <trkpt lat="43.51879" lon="5.89255">
        <ele>426</ele>
        <time>2018-02-04T07:43:20Z</time>
      </trkpt>
      <trkpt lat="43.51897" lon="5.89248">
        <ele>426</ele>
        <time>2018-02-04T07:43:33Z</time>
      </trkpt>
      <trkpt lat="43.51914" lon="5.89236">
        <ele>427</ele>
        <time>2018-02-04T07:43:46Z</time>
      </trkpt>
      <trkpt lat="43.51929" lon="5.8922">
        <ele>429</ele>
        <time>2018-02-04T07:43:57Z</time>
      </trkpt>
      <trkpt lat="43.51946" lon="5.89214">
        <ele>430</ele>
        <time>2018-02-04T07:44:11Z</time>
      </trkpt>
      <trkpt lat="43.51964" lon="5.89223">
        <ele>431</ele>
        <time>2018-02-04T07:44:26Z</time>
      </trkpt>
      <trkpt lat="43.51982" lon="5.89227">
        <ele>432</ele>
        <time>2018-02-04T07:44:40Z</time>
      </trkpt>
      <trkpt lat="43.52" lon="5.89234">
        <ele>435</ele>
        <time>2018-02-04T07:44:53Z</time>
      </trkpt>
      <trkpt lat="43.52019" lon="5.8923">
        <ele>435</ele>
        <time>2018-02-04T07:45:07Z</time>
      </trkpt>
      <trkpt lat="43.52037" lon="5.89226">
        <ele>435</ele>
        <time>2018-02-04T07:45:20Z</time>
      </trkpt>
      <trkpt lat="43.52056" lon="5.89232">
        <ele>436</ele>
        <time>2018-02-04T07:45:32Z</time>
      </trkpt>
      <trkpt lat="43.52074" lon="5.89229">
        <ele>437</ele>
        <time>2018-02-04T07:45:45Z</time>
      </trkpt>
      <trkpt lat="43.52092" lon="5.89234">
        <ele>439</ele>
        <time>2018-02-04T07:45:57Z</time>
      </trkpt>
      <trkpt lat="43.5211" lon="5.89232">
        <ele>439</ele>
        <time>2018-02-04T07:46:09Z</time>
      </trkpt>
      <trkpt lat="43.52129" lon="5.89226">
        <ele>439</ele>
        <time>2018-02-04T07:46:21Z</time>
      </trkpt>
      <trkpt lat="43.52149" lon="5.8923">
        <ele>440</ele>
        <time>2018-02-04T07:46:32Z</time>
      </trkpt>
      <trkpt lat="43.52168" lon="5.89237">
        <ele>442</ele>
        <time>2018-02-04T07:46:43Z</time>
      </trkpt>
      <trkpt lat="43.52183" lon="5.89253">
        <ele>442</ele>
        <time>2018-02-04T07:46:53Z</time>
      </trkpt>
      <trkpt lat="43.52201" lon="5.89261">
        <ele>441</ele>
        <time>2018-02-04T07:47:04Z</time>
      </trkpt>
      <trkpt lat="43.52219" lon="5.89258">
        <ele>441</ele>
        <time>2018-02-04T07:47:14Z</time>
      </trkpt>
      <trkpt lat="43.52237" lon="5.89256">
        <ele>442</ele>
        <time>2018-02-04T07:47:24Z</time>
      </trkpt>
      <trkpt lat="43.52255" lon="5.89252">
        <ele>442</ele>
        <time>2018-02-04T07:47:34Z</time>
      </trkpt>
      <trkpt lat="43.52272" lon="5.89242">
        <ele>441</ele>
        <time>2018-02-04T07:47:44Z</time>
      </trkpt>
      <trkpt lat="43.52291" lon="5.89244">
        <ele>441</ele>
        <time>2018-02-04T07:47:54Z</time>
      </trkpt>
      <trkpt lat="43.52309" lon="5.89245">
        <ele>441</ele>
        <time>2018-02-04T07:48:04Z</time>
      </trkpt>
      <trkpt lat="43.52328" lon="5.89249">
        <ele>442</ele>
        <time>2018-02-04T07:48:16Z</time>
      </trkpt>
      <trkpt lat="43.52347" lon="5.89255">
        <ele>441</ele>
        <time>2018-02-04T07:48:26Z</time>
      </trkpt>
      <trkpt lat="43.52366" lon="5.89255">
        <ele>441</ele>
        <time>2018-02-04T07:48:36Z</time>
      </trkpt>
      <trkpt lat="43.52386" lon="5.89253">
        <ele>442</ele>
        <time>2018-02-04T07:48:47Z</time>
      </trkpt>
      <trkpt lat="43.52404" lon="5.89256">
        <ele>444</ele>
        <time>2018-02-04T07:48:57Z</time>
      </trkpt>
      <trkpt lat="43.52422" lon="5.89247">
        <ele>446</ele>
        <time>2018-02-04T07:49:08Z</time>
      </trkpt>
      <trkpt lat="43.5244" lon="5.89239">
        <ele>445</ele>
        <time>2018-02-04T07:49:20Z</time>
      </trkpt>
      <trkpt lat="43.52458" lon="5.89236">
        <ele>445</ele>
        <time>2018-02-04T07:49:32Z</time>
      </trkpt>
      <trkpt lat="43.52474" lon="5.8922">
        <ele>445</ele>
        <time>2018-02-04T07:49:44Z</time>
      </trkpt>
      <trkpt lat="43.52484" lon="5.89198">
        <ele>445</ele>
        <time>2018-02-04T07:49:57Z</time>
      </trkpt>
      <trkpt lat="43.52501" lon="5.89185">
        <ele>447</ele>
        <time>2018-02-04T07:50:08Z</time>
      </trkpt>
      <trkpt lat="43.52519" lon="5.89177">
        <ele>447</ele>
        <time>2018-02-04T07:50:19Z</time>
      </trkpt>
      <trkpt lat="43.52539" lon="5.89177">
        <ele>448</ele>
        <time>2018-02-04T07:50:31Z</time>
      </trkpt>
      <trkpt lat="43.52556" lon="5.89184">
        <ele>449</ele>
        <time>2018-02-04T07:50:42Z</time>
      </trkpt>
      <trkpt lat="43.52573" lon="5.89172">
        <ele>450</ele>
        <time>2018-02-04T07:50:54Z</time>
      </trkpt>
      <trkpt lat="43.52591" lon="5.89161">
        <ele>451</ele>
        <time>2018-02-04T07:51:06Z</time>
      </trkpt>
      <trkpt lat="43.52602" lon="5.89141">
        <ele>452</ele>
        <time>2018-02-04T07:51:19Z</time>
      </trkpt>
      <trkpt lat="43.52617" lon="5.89125">
        <ele>452</ele>
        <time>2018-02-04T07:51:30Z</time>
      </trkpt>
      <trkpt lat="43.52631" lon="5.89107">
        <ele>452</ele>
        <time>2018-02-04T07:51:41Z</time>
      </trkpt>
      <trkpt lat="43.52648" lon="5.89095">
        <ele>454</ele>
        <time>2018-02-04T07:51:53Z</time>
      </trkpt>
      <trkpt lat="43.52666" lon="5.89087">
        <ele>455</ele>
        <time>2018-02-04T07:52:05Z</time>
      </trkpt>
      <trkpt lat="43.52684" lon="5.89082">
        <ele>456</ele>
        <time>2018-02-04T07:52:16Z</time>
      </trkpt>
      <trkpt lat="43.52702" lon="5.8908">
        <ele>456</ele>
        <time>2018-02-04T07:52:27Z</time>
      </trkpt>
      <trkpt lat="43.52719" lon="5.89071">
        <ele>457</ele>
        <time>2018-02-04T07:52:38Z</time>
      </trkpt>
      <trkpt lat="43.52734" lon="5.89053">
        <ele>457</ele>
        <time>2018-02-04T07:52:49Z</time>
      </trkpt>
      <trkpt lat="43.52748" lon="5.89037">
        <ele>457</ele>
        <time>2018-02-04T07:53:00Z</time>
      </trkpt>
      <trkpt lat="43.52751" lon="5.89012">
        <ele>457</ele>
        <time>2018-02-04T07:53:12Z</time>
      </trkpt>
      <trkpt lat="43.52758" lon="5.88988">
        <ele>456</ele>
        <time>2018-02-04T07:53:23Z</time>
      </trkpt>
      <trkpt lat="43.52767" lon="5.88963">
        <ele>456</ele>
        <time>2018-02-04T07:53:34Z</time>
      </trkpt>
      <trkpt lat="43.52775" lon="5.8894">
        <ele>455</ele>
        <time>2018-02-04T07:53:44Z</time>
      </trkpt>
      <trkpt lat="43.52788" lon="5.88922">
        <ele>455</ele>
        <time>2018-02-04T07:53:57Z</time>
      </trkpt>
      <trkpt lat="43.52797" lon="5.88898">
        <ele>453</ele>
        <time>2018-02-04T07:54:09Z</time>
      </trkpt>
      <trkpt lat="43.52803" lon="5.88873">
        <ele>452</ele>
        <time>2018-02-04T07:54:15Z</time>
      </trkpt>
      <trkpt lat="43.5281" lon="5.88849">
        <ele>451</ele>
        <time>2018-02-04T07:54:20Z</time>
      </trkpt>
      <trkpt lat="43.52808" lon="5.88822">
        <ele>450</ele>
        <time>2018-02-04T07:54:25Z</time>
      </trkpt>
      <trkpt lat="43.52818" lon="5.88801">
        <ele>450</ele>
        <time>2018-02-04T07:58:12Z</time>
      </trkpt>
      <trkpt lat="43.52837" lon="5.88793">
        <ele>447</ele>
        <time>2018-02-04T07:58:22Z</time>
      </trkpt>
      <trkpt lat="43.52856" lon="5.88782">
        <ele>447</ele>
        <time>2018-02-04T07:58:29Z</time>
      </trkpt>
      <trkpt lat="43.52877" lon="5.88773">
        <ele>446</ele>
        <time>2018-02-04T07:58:34Z</time>
      </trkpt>
      <trkpt lat="43.52895" lon="5.8877">
        <ele>445</ele>
        <time>2018-02-04T07:58:38Z</time>
      </trkpt>
      <trkpt lat="43.52914" lon="5.88769">
        <ele>443</ele>
        <time>2018-02-04T07:58:42Z</time>
      </trkpt>
      <trkpt lat="43.52932" lon="5.88766">
        <ele>441</ele>
        <time>2018-02-04T07:58:46Z</time>
      </trkpt>
      <trkpt lat="43.52954" lon="5.88765">
        <ele>441</ele>
        <time>2018-02-04T07:58:51Z</time>
      </trkpt>
      <trkpt lat="43.52975" lon="5.88775">
        <ele>440</ele>
        <time>2018-02-04T07:58:56Z</time>
      </trkpt>
      <trkpt lat="43.52995" lon="5.88779">
        <ele>440</ele>
        <time>2018-02-04T07:59:00Z</time>
      </trkpt>
      <trkpt lat="43.53016" lon="5.88779">
        <ele>437</ele>
        <time>2018-02-04T07:59:04Z</time>
      </trkpt>
      <trkpt lat="43.53039" lon="5.88774">
        <ele>436</ele>
        <time>2018-02-04T07:59:08Z</time>
      </trkpt>
      <trkpt lat="43.53061" lon="5.88778">
        <ele>435</ele>
        <time>2018-02-04T07:59:12Z</time>
      </trkpt>
      <trkpt lat="43.53082" lon="5.88781">
        <ele>435</ele>
        <time>2018-02-04T07:59:16Z</time>
      </trkpt>
      <trkpt lat="43.53104" lon="5.88772">
        <ele>430</ele>
        <time>2018-02-04T07:59:20Z</time>
      </trkpt>
      <trkpt lat="43.53123" lon="5.88766">
        <ele>429</ele>
        <time>2018-02-04T07:59:24Z</time>
      </trkpt>
      <trkpt lat="43.53146" lon="5.88766">
        <ele>427</ele>
        <time>2018-02-04T07:59:28Z</time>
      </trkpt>
      <trkpt lat="43.53164" lon="5.88772">
        <ele>426</ele>
        <time>2018-02-04T07:59:31Z</time>
      </trkpt>
      <trkpt lat="43.53185" lon="5.88774">
        <ele>421</ele>
        <time>2018-02-04T07:59:34Z</time>
      </trkpt>
      <trkpt lat="43.53207" lon="5.88777">
        <ele>420</ele>
        <time>2018-02-04T07:59:38Z</time>
      </trkpt>
      <trkpt lat="43.53225" lon="5.88771">
        <ele>418</ele>
        <time>2018-02-04T07:59:43Z</time>
      </trkpt>
      <trkpt lat="43.53243" lon="5.88759">
        <ele>414</ele>
        <time>2018-02-04T07:59:48Z</time>
      </trkpt>
      <trkpt lat="43.53262" lon="5.88747">
        <ele>411</ele>
        <time>2018-02-04T07:59:54Z</time>
      </trkpt>
      <trkpt lat="43.53273" lon="5.88724">
        <ele>412</ele>
        <time>2018-02-04T08:00:00Z</time>
      </trkpt>
      <trkpt lat="43.53277" lon="5.88696">
        <ele>413</ele>
        <time>2018-02-04T08:00:05Z</time>
      </trkpt>
      <trkpt lat="43.53289" lon="5.88677">
        <ele>413</ele>
        <time>2018-02-04T08:00:12Z</time>
      </trkpt>
      <trkpt lat="43.53309" lon="5.88681">
        <ele>413</ele>
        <time>2018-02-04T08:00:21Z</time>
      </trkpt>
      <trkpt lat="43.53325" lon="5.88693">
        <ele>413</ele>
        <time>2018-02-04T08:00:29Z</time>
      </trkpt>
      <trkpt lat="43.53344" lon="5.88701">
        <ele>414</ele>
        <time>2018-02-04T08:00:37Z</time>
      </trkpt>
      <trkpt lat="43.53362" lon="5.88707">
        <ele>414</ele>
        <time>2018-02-04T08:00:45Z</time>
      </trkpt>
      <trkpt lat="43.5338" lon="5.88715">
        <ele>415</ele>
        <time>2018-02-04T08:00:54Z</time>
      </trkpt>
      <trkpt lat="43.53398" lon="5.88724">
        <ele>414</ele>
        <time>2018-02-04T08:01:03Z</time>
      </trkpt>
      <trkpt lat="43.53416" lon="5.88733">
        <ele>414</ele>
        <time>2018-02-04T08:01:12Z</time>
      </trkpt>
      <trkpt lat="43.53435" lon="5.88737">
        <ele>416</ele>
        <time>2018-02-04T08:01:21Z</time>
      </trkpt>
      <trkpt lat="43.53453" lon="5.88736">
        <ele>416</ele>
        <time>2018-02-04T08:01:30Z</time>
      </trkpt>
      <trkpt lat="43.53471" lon="5.88737">
        <ele>416</ele>
        <time>2018-02-04T08:01:40Z</time>
      </trkpt>
      <trkpt lat="43.53489" lon="5.88727">
        <ele>416</ele>
        <time>2018-02-04T08:01:47Z</time>
      </trkpt>
      <trkpt lat="43.53507" lon="5.88713">
        <ele>414</ele>
        <time>2018-02-04T08:01:53Z</time>
      </trkpt>
      <trkpt lat="43.53523" lon="5.88693">
        <ele>415</ele>
        <time>2018-02-04T08:01:58Z</time>
      </trkpt>
      <trkpt lat="43.53538" lon="5.88672">
        <ele>414</ele>
        <time>2018-02-04T08:02:03Z</time>
      </trkpt>
      <trkpt lat="43.53552" lon="5.8865">
        <ele>418</ele>
        <time>2018-02-04T08:02:08Z</time>
      </trkpt>
      <trkpt lat="43.53569" lon="5.88637">
        <ele>418</ele>
        <time>2018-02-04T08:02:14Z</time>
      </trkpt>
      <trkpt lat="43.53589" lon="5.88631">
        <ele>414</ele>
        <time>2018-02-04T08:02:19Z</time>
      </trkpt>
      <trkpt lat="43.53609" lon="5.88628">
        <ele>414</ele>
        <time>2018-02-04T08:02:25Z</time>
      </trkpt>
      <trkpt lat="43.53627" lon="5.88617">
        <ele>415</ele>
        <time>2018-02-04T08:02:31Z</time>
      </trkpt>
      <trkpt lat="43.53642" lon="5.88604">
        <ele>415</ele>
        <time>2018-02-04T08:02:37Z</time>
      </trkpt>
      <trkpt lat="43.5366" lon="5.88591">
        <ele>416</ele>
        <time>2018-02-04T08:02:43Z</time>
      </trkpt>
      <trkpt lat="43.53676" lon="5.8858">
        <ele>419</ele>
        <time>2018-02-04T08:02:49Z</time>
      </trkpt>
      <trkpt lat="43.53691" lon="5.88563">
        <ele>421</ele>
        <time>2018-02-04T08:02:56Z</time>
      </trkpt>
      <trkpt lat="43.53706" lon="5.88544">
        <ele>422</ele>
        <time>2018-02-04T08:03:04Z</time>
      </trkpt>
      <trkpt lat="43.5372" lon="5.88526">
        <ele>422</ele>
        <time>2018-02-04T08:03:13Z</time>
      </trkpt>
      <trkpt lat="43.53732" lon="5.88507">
        <ele>422</ele>
        <time>2018-02-04T08:03:23Z</time>
      </trkpt>
      <trkpt lat="43.53741" lon="5.88485">
        <ele>426</ele>
        <time>2018-02-04T08:03:32Z</time>
      </trkpt>
      <trkpt lat="43.53749" lon="5.88462">
        <ele>428</ele>
        <time>2018-02-04T08:03:41Z</time>
      </trkpt>
      <trkpt lat="43.53765" lon="5.88445">
        <ele>426</ele>
        <time>2018-02-04T08:03:50Z</time>
      </trkpt>
      <trkpt lat="43.53781" lon="5.88432">
        <ele>426</ele>
        <time>2018-02-04T08:03:57Z</time>
      </trkpt>
      <trkpt lat="43.538" lon="5.88428">
        <ele>425</ele>
        <time>2018-02-04T08:04:07Z</time>
      </trkpt>
      <trkpt lat="43.53818" lon="5.88439">
        <ele>425</ele>
        <time>2018-02-04T08:04:16Z</time>
      </trkpt>
      <trkpt lat="43.53835" lon="5.88447">
        <ele>428</ele>
        <time>2018-02-04T08:04:25Z</time>
      </trkpt>
      <trkpt lat="43.53855" lon="5.88444">
        <ele>429</ele>
        <time>2018-02-04T08:04:35Z</time>
      </trkpt>
      <trkpt lat="43.53873" lon="5.88436">
        <ele>431</ele>
        <time>2018-02-04T08:04:47Z</time>
      </trkpt>
      <trkpt lat="43.53892" lon="5.88439">
        <ele>433</ele>
        <time>2018-02-04T08:04:59Z</time>
      </trkpt>
      <trkpt lat="43.53911" lon="5.88443">
        <ele>434</ele>
        <time>2018-02-04T08:05:12Z</time>
      </trkpt>
      <trkpt lat="43.5393" lon="5.88443">
        <ele>438</ele>
        <time>2018-02-04T08:05:23Z</time>
      </trkpt>
      <trkpt lat="43.53948" lon="5.88453">
        <ele>437</ele>
        <time>2018-02-04T08:05:35Z</time>
      </trkpt>
      <trkpt lat="43.53966" lon="5.88462">
        <ele>437</ele>
        <time>2018-02-04T08:05:46Z</time>
      </trkpt>
      <trkpt lat="43.53985" lon="5.88463">
        <ele>437</ele>
        <time>2018-02-04T08:05:58Z</time>
      </trkpt>
      <trkpt lat="43.54003" lon="5.88457">
        <ele>437</ele>
        <time>2018-02-04T08:06:11Z</time>
      </trkpt>
      <trkpt lat="43.5402" lon="5.88447">
        <ele>437</ele>
        <time>2018-02-04T08:06:25Z</time>
      </trkpt>
      <trkpt lat="43.54038" lon="5.88441">
        <ele>437</ele>
        <time>2018-02-04T08:06:36Z</time>
      </trkpt>
      <trkpt lat="43.54055" lon="5.8843">
        <ele>436</ele>
        <time>2018-02-04T08:06:47Z</time>
      </trkpt>
      <trkpt lat="43.54073" lon="5.88422">
        <ele>437</ele>
        <time>2018-02-04T08:06:54Z</time>
      </trkpt>
      <trkpt lat="43.54088" lon="5.88408">
        <ele>439</ele>
        <time>2018-02-04T08:07:00Z</time>
      </trkpt>
      <trkpt lat="43.54104" lon="5.88394">
        <ele>441</ele>
        <time>2018-02-04T08:07:06Z</time>
      </trkpt>
      <trkpt lat="43.5412" lon="5.88378">
        <ele>442</ele>
        <time>2018-02-04T08:07:14Z</time>
      </trkpt>
      <trkpt lat="43.54137" lon="5.88365">
        <ele>442</ele>
        <time>2018-02-04T08:07:23Z</time>
      </trkpt>
      <trkpt lat="43.54154" lon="5.88351">
        <ele>442</ele>
        <time>2018-02-04T08:07:31Z</time>
      </trkpt>
      <trkpt lat="43.54172" lon="5.88344">
        <ele>443</ele>
        <time>2018-02-04T08:07:39Z</time>
      </trkpt>
      <trkpt lat="43.5419" lon="5.88337">
        <ele>443</ele>
        <time>2018-02-04T08:07:48Z</time>
      </trkpt>
      <trkpt lat="43.54208" lon="5.88333">
        <ele>447</ele>
        <time>2018-02-04T08:07:56Z</time>
      </trkpt>
      <trkpt lat="43.54227" lon="5.88328">
        <ele>446</ele>
        <time>2018-02-04T08:08:06Z</time>
      </trkpt>
      <trkpt lat="43.54249" lon="5.88316">
        <ele>446</ele>
        <time>2018-02-04T08:18:17Z</time>
      </trkpt>
      <trkpt lat="43.54266" lon="5.88303">
        <ele>447</ele>
        <time>2018-02-04T08:18:27Z</time>
      </trkpt>
      <trkpt lat="43.54283" lon="5.88289">
        <ele>448</ele>
        <time>2018-02-04T08:18:37Z</time>
      </trkpt>
      <trkpt lat="43.543" lon="5.88277">
        <ele>448</ele>
        <time>2018-02-04T08:18:46Z</time>
      </trkpt>
      <trkpt lat="43.54317" lon="5.88266">
        <ele>449</ele>
        <time>2018-02-04T08:18:54Z</time>
      </trkpt>
      <trkpt lat="43.54334" lon="5.88253">
        <ele>450</ele>
        <time>2018-02-04T08:19:02Z</time>
      </trkpt>
      <trkpt lat="43.54351" lon="5.88243">
        <ele>451</ele>
        <time>2018-02-04T08:19:09Z</time>
      </trkpt>
      <trkpt lat="43.54369" lon="5.8823">
        <ele>451</ele>
        <time>2018-02-04T08:19:17Z</time>
      </trkpt>
      <trkpt lat="43.54385" lon="5.88216">
        <ele>451</ele>
        <time>2018-02-04T08:19:25Z</time>
      </trkpt>
      <trkpt lat="43.54401" lon="5.88203">
        <ele>451</ele>
        <time>2018-02-04T08:19:35Z</time>
      </trkpt>
      <trkpt lat="43.54418" lon="5.88192">
        <ele>448</ele>
        <time>2018-02-04T08:19:46Z</time>
      </trkpt>
      <trkpt lat="43.54435" lon="5.88184">
        <ele>448</ele>
        <time>2018-02-04T08:19:56Z</time>
      </trkpt>
      <trkpt lat="43.54442" lon="5.88159">
        <ele>453</ele>
        <time>2018-02-04T08:20:08Z</time>
      </trkpt>
      <trkpt lat="43.54453" lon="5.88139">
        <ele>453</ele>
        <time>2018-02-04T08:20:18Z</time>
      </trkpt>
      <trkpt lat="43.54466" lon="5.8812">
        <ele>454</ele>
        <time>2018-02-04T08:20:26Z</time>
      </trkpt>
      <trkpt lat="43.54479" lon="5.88103">
        <ele>454</ele>
        <time>2018-02-04T08:20:34Z</time>
      </trkpt>
      <trkpt lat="43.54491" lon="5.88082">
        <ele>456</ele>
        <time>2018-02-04T08:20:44Z</time>
      </trkpt>
      <trkpt lat="43.54503" lon="5.88062">
        <ele>453</ele>
        <time>2018-02-04T08:20:52Z</time>
      </trkpt>
      <trkpt lat="43.54517" lon="5.88044">
        <ele>454</ele>
        <time>2018-02-04T08:20:59Z</time>
      </trkpt>
      <trkpt lat="43.54527" lon="5.88023">
        <ele>455</ele>
        <time>2018-02-04T08:21:05Z</time>
      </trkpt>
      <trkpt lat="43.54541" lon="5.88005">
        <ele>454</ele>
        <time>2018-02-04T08:21:11Z</time>
      </trkpt>
      <trkpt lat="43.54558" lon="5.87991">
        <ele>457</ele>
        <time>2018-02-04T08:21:21Z</time>
      </trkpt>
      <trkpt lat="43.54571" lon="5.8797">
        <ele>457</ele>
        <time>2018-02-04T08:22:13Z</time>
      </trkpt>
      <trkpt lat="43.54587" lon="5.87959">
        <ele>456</ele>
        <time>2018-02-04T08:23:11Z</time>
      </trkpt>
      <trkpt lat="43.54603" lon="5.87952">
        <ele>456</ele>
        <time>2018-02-04T08:25:59Z</time>
      </trkpt>
      <trkpt lat="43.54617" lon="5.87936">
        <ele>457</ele>
        <time>2018-02-04T08:26:09Z</time>
      </trkpt>
      <trkpt lat="43.54633" lon="5.87924">
        <ele>457</ele>
        <time>2018-02-04T08:26:20Z</time>
      </trkpt>
      <trkpt lat="43.54645" lon="5.87905">
        <ele>459</ele>
        <time>2018-02-04T08:26:30Z</time>
      </trkpt>
      <trkpt lat="43.54657" lon="5.87886">
        <ele>460</ele>
        <time>2018-02-04T08:26:39Z</time>
      </trkpt>
      <trkpt lat="43.54672" lon="5.87869">
        <ele>457</ele>
        <time>2018-02-04T08:26:48Z</time>
      </trkpt>
      <trkpt lat="43.54685" lon="5.87889">
        <ele>456</ele>
        <time>2018-02-04T08:26:57Z</time>
      </trkpt>
      <trkpt lat="43.54701" lon="5.87904">
        <ele>456</ele>
        <time>2018-02-04T08:27:06Z</time>
      </trkpt>
      <trkpt lat="43.54713" lon="5.87924">
        <ele>455</ele>
        <time>2018-02-04T08:27:16Z</time>
      </trkpt>
      <trkpt lat="43.54727" lon="5.87944">
        <ele>455</ele>
        <time>2018-02-04T08:27:24Z</time>
      </trkpt>
      <trkpt lat="43.54741" lon="5.87961">
        <ele>455</ele>
        <time>2018-02-04T08:27:32Z</time>
      </trkpt>
      <trkpt lat="43.54751" lon="5.87984">
        <ele>453</ele>
        <time>2018-02-04T08:27:40Z</time>
      </trkpt>
      <trkpt lat="43.54752" lon="5.8801">
        <ele>454</ele>
        <time>2018-02-04T08:27:48Z</time>
      </trkpt>
      <trkpt lat="43.54758" lon="5.88034">
        <ele>454</ele>
        <time>2018-02-04T08:27:56Z</time>
      </trkpt>
      <trkpt lat="43.54757" lon="5.88063">
        <ele>455</ele>
        <time>2018-02-04T08:28:03Z</time>
      </trkpt>
      <trkpt lat="43.54759" lon="5.8809">
        <ele>455</ele>
        <time>2018-02-04T08:28:09Z</time>
      </trkpt>
      <trkpt lat="43.54761" lon="5.88118">
        <ele>454</ele>
        <time>2018-02-04T08:28:15Z</time>
      </trkpt>
      <trkpt lat="43.5476" lon="5.88144">
        <ele>454</ele>
        <time>2018-02-04T08:28:21Z</time>
      </trkpt>
      <trkpt lat="43.54765" lon="5.88169">
        <ele>454</ele>
        <time>2018-02-04T08:28:28Z</time>
      </trkpt>
      <trkpt lat="43.54766" lon="5.88195">
        <ele>453</ele>
        <time>2018-02-04T08:28:35Z</time>
      </trkpt>
      <trkpt lat="43.54762" lon="5.88223">
        <ele>453</ele>
        <time>2018-02-04T08:28:41Z</time>
      </trkpt>
      <trkpt lat="43.54758" lon="5.88249">
        <ele>453</ele>
        <time>2018-02-04T08:28:46Z</time>
      </trkpt>
      <trkpt lat="43.54762" lon="5.88275">
        <ele>451</ele>
        <time>2018-02-04T08:28:52Z</time>
      </trkpt>
      <trkpt lat="43.54771" lon="5.88299">
        <ele>450</ele>
        <time>2018-02-04T08:28:57Z</time>
      </trkpt>
      <trkpt lat="43.54783" lon="5.88323">
        <ele>449</ele>
        <time>2018-02-04T08:29:03Z</time>
      </trkpt>
      <trkpt lat="43.54793" lon="5.88345">
        <ele>446</ele>
        <time>2018-02-04T08:29:08Z</time>
      </trkpt>
      <trkpt lat="43.54802" lon="5.88369">
        <ele>445</ele>
        <time>2018-02-04T08:29:15Z</time>
      </trkpt>
      <trkpt lat="43.54813" lon="5.88392">
        <ele>444</ele>
        <time>2018-02-04T08:29:21Z</time>
      </trkpt>
      <trkpt lat="43.54825" lon="5.88417">
        <ele>440</ele>
        <time>2018-02-04T08:29:27Z</time>
      </trkpt>
      <trkpt lat="43.54837" lon="5.88437">
        <ele>435</ele>
        <time>2018-02-04T08:29:32Z</time>
      </trkpt>
      <trkpt lat="43.5484" lon="5.88465">
        <ele>432</ele>
        <time>2018-02-04T08:29:41Z</time>
      </trkpt>
      <trkpt lat="43.54831" lon="5.8849">
        <ele>433</ele>
        <time>2018-02-04T08:29:48Z</time>
      </trkpt>
      <trkpt lat="43.54827" lon="5.88516">
        <ele>429</ele>
        <time>2018-02-04T08:29:53Z</time>
      </trkpt>
      <trkpt lat="43.54842" lon="5.88535">
        <ele>425</ele>
        <time>2018-02-04T08:29:59Z</time>
      </trkpt>
      <trkpt lat="43.54855" lon="5.88555">
        <ele>423</ele>
        <time>2018-02-04T08:30:04Z</time>
      </trkpt>
      <trkpt lat="43.54863" lon="5.88582">
        <ele>422</ele>
        <time>2018-02-04T08:30:09Z</time>
      </trkpt>
      <trkpt lat="43.5487" lon="5.88611">
        <ele>417</ele>
        <time>2018-02-04T08:30:14Z</time>
      </trkpt>
      <trkpt lat="43.54877" lon="5.88637">
        <ele>415</ele>
        <time>2018-02-04T08:30:20Z</time>
      </trkpt>
      <trkpt lat="43.5488" lon="5.88666">
        <ele>414</ele>
        <time>2018-02-04T08:30:25Z</time>
      </trkpt>
      <trkpt lat="43.54885" lon="5.88692">
        <ele>409</ele>
        <time>2018-02-04T08:30:30Z</time>
      </trkpt>
      <trkpt lat="43.54896" lon="5.88718">
        <ele>408</ele>
        <time>2018-02-04T08:30:34Z</time>
      </trkpt>
      <trkpt lat="43.54903" lon="5.88741">
        <ele>406</ele>
        <time>2018-02-04T08:30:38Z</time>
      </trkpt>
      <trkpt lat="43.54909" lon="5.88772">
        <ele>404</ele>
        <time>2018-02-04T08:30:43Z</time>
      </trkpt>
      <trkpt lat="43.54913" lon="5.88801">
        <ele>403</ele>
        <time>2018-02-04T08:30:47Z</time>
      </trkpt>
      <trkpt lat="43.54921" lon="5.88825">
        <ele>400</ele>
        <time>2018-02-04T08:30:53Z</time>
      </trkpt>
      <trkpt lat="43.5494" lon="5.88832">
        <ele>401</ele>
        <time>2018-02-04T08:33:04Z</time>
      </trkpt>
      <trkpt lat="43.54958" lon="5.8882">
        <ele>402</ele>
        <time>2018-02-04T08:33:13Z</time>
      </trkpt>
      <trkpt lat="43.54972" lon="5.88801">
        <ele>402</ele>
        <time>2018-02-04T08:33:22Z</time>
      </trkpt>
      <trkpt lat="43.54986" lon="5.88785">
        <ele>402</ele>
        <time>2018-02-04T08:33:30Z</time>
      </trkpt>
      <trkpt lat="43.55" lon="5.88766">
        <ele>402</ele>
        <time>2018-02-04T08:33:38Z</time>
      </trkpt>
      <trkpt lat="43.55011" lon="5.88745">
        <ele>405</ele>
        <time>2018-02-04T08:33:50Z</time>
      </trkpt>
      <trkpt lat="43.55023" lon="5.88742">
        <ele>407</ele>
      </trkpt>
      <trkpt lat="43.55039" lon="5.88751">
        <ele>410</ele>
        <time>2018-02-04T08:36:09Z</time>
      </trkpt>
      <trkpt lat="43.55053" lon="5.88768">
        <ele>412</ele>
        <time>2018-02-04T08:36:21Z</time>
      </trkpt>
      <trkpt lat="43.5507" lon="5.88781">
        <ele>413</ele>
        <time>2018-02-04T08:36:33Z</time>
      </trkpt>
      <trkpt lat="43.55088" lon="5.88791">
        <ele>423</ele>
        <time>2018-02-04T08:36:47Z</time>
      </trkpt>
      <trkpt lat="43.55105" lon="5.88802">
        <ele>424</ele>
        <time>2018-02-04T08:37:00Z</time>
      </trkpt>
      <trkpt lat="43.55122" lon="5.88812">
        <ele>426</ele>
        <time>2018-02-04T08:37:15Z</time>
      </trkpt>
      <trkpt lat="43.55139" lon="5.88823">
        <ele>428</ele>
        <time>2018-02-04T08:37:28Z</time>
      </trkpt>
      <trkpt lat="43.55156" lon="5.88833">
        <ele>430</ele>
        <time>2018-02-04T08:37:41Z</time>
      </trkpt>
      <trkpt lat="43.5517" lon="5.88849">
        <ele>432</ele>
        <time>2018-02-04T08:37:52Z</time>
      </trkpt>
      <trkpt lat="43.55171" lon="5.88874">
        <ele>431</ele>
        <time>2018-02-04T08:38:03Z</time>
      </trkpt>
      <trkpt lat="43.55188" lon="5.88882">
        <ele>431</ele>
        <time>2018-02-04T08:38:14Z</time>
      </trkpt>
      <trkpt lat="43.55206" lon="5.8889">
        <ele>431</ele>
        <time>2018-02-04T08:38:25Z</time>
      </trkpt>
      <trkpt lat="43.55223" lon="5.88911">
        <ele>430</ele>
        <time>2018-02-04T08:38:31Z</time>
      </trkpt>
      <trkpt lat="43.55237" lon="5.88932">
        <ele>427</ele>
        <time>2018-02-04T08:38:35Z</time>
      </trkpt>
      <trkpt lat="43.55242" lon="5.88958">
        <ele>427</ele>
        <time>2018-02-04T08:38:39Z</time>
      </trkpt>
      <trkpt lat="43.55243" lon="5.88983">
        <ele>426</ele>
        <time>2018-02-04T08:38:43Z</time>
      </trkpt>
      <trkpt lat="43.55251" lon="5.8901">
        <ele>427</ele>
        <time>2018-02-04T08:38:49Z</time>
      </trkpt>
      <trkpt lat="43.55262" lon="5.8903">
        <ele>429</ele>
        <time>2018-02-04T08:38:55Z</time>
      </trkpt>
      <trkpt lat="43.55273" lon="5.8905">
        <ele>430</ele>
        <time>2018-02-04T08:39:02Z</time>
      </trkpt>
      <trkpt lat="43.55289" lon="5.89062">
        <ele>431</ele>
        <time>2018-02-04T08:39:10Z</time>
      </trkpt>
      <trkpt lat="43.55311" lon="5.89065">
        <ele>432</ele>
        <time>2018-02-04T09:01:41Z</time>
      </trkpt>
      <trkpt lat="43.55329" lon="5.89059">
        <ele>433</ele>
        <time>2018-02-04T09:01:48Z</time>
      </trkpt>
      <trkpt lat="43.55346" lon="5.89049">
        <ele>437</ele>
        <time>2018-02-04T09:01:57Z</time>
      </trkpt>
      <trkpt lat="43.55365" lon="5.8904">
        <ele>437</ele>
        <time>2018-02-04T09:02:07Z</time>
      </trkpt>
      <trkpt lat="43.55383" lon="5.89032">
        <ele>438</ele>
        <time>2018-02-04T09:02:17Z</time>
      </trkpt>
      <trkpt lat="43.55401" lon="5.89023">
        <ele>438</ele>
        <time>2018-02-04T09:02:27Z</time>
      </trkpt>
      <trkpt lat="43.55417" lon="5.8901">
        <ele>439</ele>
        <time>2018-02-04T09:02:36Z</time>
      </trkpt>
      <trkpt lat="43.55433" lon="5.88999">
        <ele>440</ele>
        <time>2018-02-04T09:02:45Z</time>
      </trkpt>
      <trkpt lat="43.55447" lon="5.88983">
        <ele>441</ele>
        <time>2018-02-04T09:02:54Z</time>
      </trkpt>
      <trkpt lat="43.55465" lon="5.88971">
        <ele>442</ele>
        <time>2018-02-04T09:03:04Z</time>
      </trkpt>
      <trkpt lat="43.55483" lon="5.88961">
        <ele>442</ele>
        <time>2018-02-04T09:03:13Z</time>
      </trkpt>
      <trkpt lat="43.555" lon="5.88948">
        <ele>442</ele>
        <time>2018-02-04T09:03:23Z</time>
      </trkpt>
      <trkpt lat="43.55519" lon="5.88943">
        <ele>444</ele>
        <time>2018-02-04T09:03:32Z</time>
      </trkpt>
      <trkpt lat="43.55539" lon="5.88943">
        <ele>444</ele>
        <time>2018-02-04T09:03:40Z</time>
      </trkpt>
      <trkpt lat="43.55558" lon="5.88934">
        <ele>444</ele>
        <time>2018-02-04T09:03:49Z</time>
      </trkpt>
      <trkpt lat="43.55573" lon="5.88921">
        <ele>444</ele>
        <time>2018-02-04T09:03:57Z</time>
      </trkpt>
      <trkpt lat="43.55589" lon="5.88905">
        <ele>445</ele>
        <time>2018-02-04T09:04:06Z</time>
      </trkpt>
      <trkpt lat="43.55602" lon="5.88886">
        <ele>447</ele>
        <time>2018-02-04T09:04:15Z</time>
      </trkpt>
      <trkpt lat="43.55617" lon="5.88872">
        <ele>447</ele>
        <time>2018-02-04T09:04:25Z</time>
      </trkpt>
      <trkpt lat="43.55635" lon="5.88861">
        <ele>448</ele>
        <time>2018-02-04T09:04:35Z</time>
      </trkpt>
      <trkpt lat="43.55648" lon="5.88843">
        <ele>448</ele>
        <time>2018-02-04T09:04:44Z</time>
      </trkpt>
      <trkpt lat="43.55664" lon="5.88828">
        <ele>449</ele>
        <time>2018-02-04T09:04:54Z</time>
      </trkpt>
      <trkpt lat="43.5568" lon="5.88814">
        <ele>450</ele>
        <time>2018-02-04T09:05:03Z</time>
      </trkpt>
      <trkpt lat="43.55701" lon="5.88811">
        <ele>451</ele>
        <time>2018-02-04T09:05:11Z</time>
      </trkpt>
      <trkpt lat="43.5572" lon="5.88814">
        <ele>451</ele>
        <time>2018-02-04T09:05:19Z</time>
      </trkpt>
      <trkpt lat="43.5574" lon="5.8881">
        <ele>452</ele>
        <time>2018-02-04T09:05:27Z</time>
      </trkpt>
      <trkpt lat="43.55758" lon="5.88803">
        <ele>454</ele>
        <time>2018-02-04T09:05:35Z</time>
      </trkpt>
      <trkpt lat="43.55777" lon="5.88797">
        <ele>454</ele>
        <time>2018-02-04T09:05:44Z</time>
      </trkpt>
      <trkpt lat="43.55797" lon="5.88791">
        <ele>455</ele>
        <time>2018-02-04T09:05:53Z</time>
      </trkpt>
      <trkpt lat="43.55815" lon="5.88782">
        <ele>455</ele>
        <time>2018-02-04T09:06:02Z</time>
      </trkpt>
      <trkpt lat="43.55832" lon="5.88772">
        <ele>456</ele>
        <time>2018-02-04T09:06:11Z</time>
      </trkpt>
      <trkpt lat="43.55848" lon="5.88759">
        <ele>458</ele>
        <time>2018-02-04T09:06:19Z</time>
      </trkpt>
      <trkpt lat="43.55865" lon="5.88748">
        <ele>459</ele>
        <time>2018-02-04T09:06:27Z</time>
      </trkpt>
      <trkpt lat="43.55882" lon="5.88738">
        <ele>459</ele>
        <time>2018-02-04T09:06:35Z</time>
      </trkpt>
      <trkpt lat="43.55899" lon="5.88729">
        <ele>460</ele>
        <time>2018-02-04T09:06:43Z</time>
      </trkpt>
      <trkpt lat="43.55917" lon="5.88724">
        <ele>460</ele>
        <time>2018-02-04T09:06:50Z</time>
      </trkpt>
      <trkpt lat="43.55935" lon="5.88726">
        <ele>460</ele>
        <time>2018-02-04T09:06:57Z</time>
      </trkpt>
      <trkpt lat="43.55954" lon="5.88728">
        <ele>460</ele>
        <time>2018-02-04T09:07:04Z</time>
      </trkpt>
      <trkpt lat="43.55972" lon="5.88727">
        <ele>460</ele>
        <time>2018-02-04T09:07:11Z</time>
      </trkpt>
      <trkpt lat="43.55991" lon="5.88725">
        <ele>459</ele>
        <time>2018-02-04T09:07:18Z</time>
      </trkpt>
      <trkpt lat="43.56011" lon="5.88719">
        <ele>459</ele>
        <time>2018-02-04T09:07:25Z</time>
      </trkpt>
      <trkpt lat="43.56031" lon="5.8872">
        <ele>459</ele>
        <time>2018-02-04T09:07:32Z</time>
      </trkpt>
      <trkpt lat="43.5605" lon="5.88723">
        <ele>459</ele>
        <time>2018-02-04T09:07:38Z</time>
      </trkpt>
      <trkpt lat="43.56067" lon="5.88716">
        <ele>459</ele>
        <time>2018-02-04T09:07:48Z</time>
      </trkpt>
      <trkpt lat="43.56086" lon="5.8871">
        <ele>460</ele>
        <time>2018-02-04T09:08:02Z</time>
      </trkpt>
      <trkpt lat="43.56104" lon="5.88703">
        <ele>460</ele>
        <time>2018-02-04T09:08:12Z</time>
      </trkpt>
      <trkpt lat="43.56123" lon="5.88698">
        <ele>461</ele>
        <time>2018-02-04T09:08:21Z</time>
      </trkpt>
      <trkpt lat="43.56141" lon="5.88691">
        <ele>461</ele>
        <time>2018-02-04T09:08:29Z</time>
      </trkpt>
      <trkpt lat="43.56159" lon="5.88687">
        <ele>461</ele>
        <time>2018-02-04T09:08:38Z</time>
      </trkpt>
      <trkpt lat="43.56179" lon="5.88684">
        <ele>464</ele>
        <time>2018-02-04T09:08:48Z</time>
      </trkpt>
      <trkpt lat="43.56198" lon="5.88681">
        <ele>464</ele>
        <time>2018-02-04T09:08:57Z</time>
      </trkpt>
      <trkpt lat="43.56217" lon="5.88678">
        <ele>465</ele>
        <time>2018-02-04T09:09:06Z</time>
      </trkpt>
      <trkpt lat="43.56236" lon="5.88683">
        <ele>466</ele>
        <time>2018-02-04T09:09:16Z</time>
      </trkpt>
      <trkpt lat="43.56256" lon="5.88689">
        <ele>469</ele>
        <time>2018-02-04T09:09:26Z</time>
      </trkpt>
      <trkpt lat="43.56274" lon="5.88695">
        <ele>470</ele>
        <time>2018-02-04T09:09:35Z</time>
      </trkpt>
      <trkpt lat="43.56293" lon="5.88699">
        <ele>471</ele>
        <time>2018-02-04T09:09:44Z</time>
      </trkpt>
      <trkpt lat="43.56313" lon="5.88702">
        <ele>471</ele>
        <time>2018-02-04T09:09:53Z</time>
      </trkpt>
      <trkpt lat="43.56331" lon="5.88701">
        <ele>472</ele>
        <time>2018-02-04T09:10:02Z</time>
      </trkpt>
      <trkpt lat="43.5635" lon="5.88699">
        <ele>474</ele>
        <time>2018-02-04T09:10:12Z</time>
      </trkpt>
      <trkpt lat="43.56369" lon="5.88692">
        <ele>475</ele>
        <time>2018-02-04T09:10:21Z</time>
      </trkpt>
      <trkpt lat="43.56386" lon="5.88684">
        <ele>475</ele>
        <time>2018-02-04T09:10:30Z</time>
      </trkpt>
      <trkpt lat="43.56404" lon="5.88675">
        <ele>476</ele>
        <time>2018-02-04T09:10:37Z</time>
      </trkpt>
      <trkpt lat="43.56423" lon="5.88672">
        <ele>477</ele>
        <time>2018-02-04T09:10:45Z</time>
      </trkpt>
      <trkpt lat="43.56443" lon="5.88667">
        <ele>476</ele>
        <time>2018-02-04T09:10:53Z</time>
      </trkpt>
      <trkpt lat="43.56461" lon="5.88656">
        <ele>476</ele>
        <time>2018-02-04T09:11:01Z</time>
      </trkpt>
      <trkpt lat="43.56465" lon="5.88631">
        <ele>476</ele>
        <time>2018-02-04T09:12:18Z</time>
      </trkpt>
      <trkpt lat="43.56454" lon="5.88609">
        <ele>477</ele>
        <time>2018-02-04T09:12:28Z</time>
      </trkpt>
      <trkpt lat="43.56443" lon="5.88589">
        <ele>477</ele>
        <time>2018-02-04T09:12:37Z</time>
      </trkpt>
      <trkpt lat="43.56433" lon="5.88566">
        <ele>478</ele>
        <time>2018-02-04T09:12:45Z</time>
      </trkpt>
      <trkpt lat="43.56423" lon="5.88544">
        <ele>478</ele>
        <time>2018-02-04T09:12:52Z</time>
      </trkpt>
      <trkpt lat="43.56413" lon="5.8852">
        <ele>477</ele>
        <time>2018-02-04T09:13:00Z</time>
      </trkpt>
      <trkpt lat="43.56403" lon="5.88497">
        <ele>475</ele>
        <time>2018-02-04T09:13:08Z</time>
      </trkpt>
      <trkpt lat="43.56395" lon="5.88474">
        <ele>474</ele>
        <time>2018-02-04T09:13:13Z</time>
      </trkpt>
      <trkpt lat="43.56399" lon="5.88446">
        <ele>474</ele>
        <time>2018-02-04T09:13:18Z</time>
      </trkpt>
      <trkpt lat="43.56406" lon="5.88422">
        <ele>473</ele>
        <time>2018-02-04T09:13:23Z</time>
      </trkpt>
      <trkpt lat="43.56414" lon="5.88398">
        <ele>472</ele>
        <time>2018-02-04T09:13:28Z</time>
      </trkpt>
      <trkpt lat="43.56423" lon="5.88373">
        <ele>474</ele>
        <time>2018-02-04T09:13:33Z</time>
      </trkpt>
      <trkpt lat="43.56435" lon="5.8835">
        <ele>473</ele>
        <time>2018-02-04T09:13:38Z</time>
      </trkpt>
      <trkpt lat="43.56447" lon="5.88329">
        <ele>474</ele>
        <time>2018-02-04T09:13:43Z</time>
      </trkpt>
      <trkpt lat="43.56461" lon="5.88309">
        <ele>475</ele>
        <time>2018-02-04T09:13:49Z</time>
      </trkpt>
      <trkpt lat="43.56471" lon="5.88286">
        <ele>476</ele>
        <time>2018-02-04T09:13:56Z</time>
      </trkpt>
      <trkpt lat="43.56472" lon="5.88259">
        <ele>476</ele>
        <time>2018-02-04T09:14:05Z</time>
      </trkpt>
      <trkpt lat="43.56471" lon="5.88233">
        <ele>477</ele>
        <time>2018-02-04T09:14:13Z</time>
      </trkpt>
      <trkpt lat="43.56473" lon="5.88205">
        <ele>477</ele>
        <time>2018-02-04T09:14:19Z</time>
      </trkpt>
      <trkpt lat="43.56464" lon="5.88181">
        <ele>477</ele>
        <time>2018-02-04T09:14:28Z</time>
      </trkpt>
      <trkpt lat="43.56449" lon="5.88163">
        <ele>476</ele>
        <time>2018-02-04T09:14:35Z</time>
      </trkpt>
      <trkpt lat="43.56447" lon="5.88137">
        <ele>476</ele>
        <time>2018-02-04T09:14:44Z</time>
      </trkpt>
      <trkpt lat="43.56454" lon="5.88113">
        <ele>476</ele>
        <time>2018-02-04T09:14:52Z</time>
      </trkpt>
      <trkpt lat="43.56462" lon="5.8809">
        <ele>476</ele>
        <time>2018-02-04T09:14:59Z</time>
      </trkpt>
      <trkpt lat="43.56475" lon="5.8807">
        <ele>475</ele>
        <time>2018-02-04T09:15:07Z</time>
      </trkpt>
      <trkpt lat="43.56493" lon="5.88061">
        <ele>475</ele>
        <time>2018-02-04T09:15:15Z</time>
      </trkpt>
      <trkpt lat="43.56509" lon="5.88047">
        <ele>477</ele>
        <time>2018-02-04T09:15:25Z</time>
      </trkpt>
      <trkpt lat="43.56529" lon="5.88045">
        <ele>477</ele>
        <time>2018-02-04T09:15:34Z</time>
      </trkpt>
      <trkpt lat="43.56547" lon="5.88046">
        <ele>478</ele>
        <time>2018-02-04T09:15:44Z</time>
      </trkpt>
      <trkpt lat="43.56565" lon="5.88054">
        <ele>479</ele>
        <time>2018-02-04T09:15:54Z</time>
      </trkpt>
      <trkpt lat="43.56566" lon="5.8808">
        <ele>480</ele>
        <time>2018-02-04T09:16:05Z</time>
      </trkpt>
      <trkpt lat="43.56559" lon="5.88103">
        <ele>480</ele>
        <time>2018-02-04T09:16:14Z</time>
      </trkpt>
      <trkpt lat="43.56561" lon="5.88131">
        <ele>480</ele>
        <time>2018-02-04T09:16:25Z</time>
      </trkpt>
      <trkpt lat="43.56575" lon="5.88148">
        <ele>480</ele>
        <time>2018-02-04T09:16:35Z</time>
      </trkpt>
      <trkpt lat="43.56593" lon="5.88155">
        <ele>483</ele>
        <time>2018-02-04T09:16:44Z</time>
      </trkpt>
      <trkpt lat="43.5661" lon="5.88166">
        <ele>483</ele>
        <time>2018-02-04T09:16:54Z</time>
      </trkpt>
      <trkpt lat="43.56629" lon="5.88177">
        <ele>483</ele>
        <time>2018-02-04T09:17:03Z</time>
      </trkpt>
      <trkpt lat="43.56625" lon="5.88202">
        <ele>483</ele>
        <time>2018-02-04T09:17:13Z</time>
      </trkpt>
      <trkpt lat="43.56625" lon="5.88229">
        <ele>484</ele>
        <time>2018-02-04T09:17:21Z</time>
      </trkpt>
      <trkpt lat="43.56626" lon="5.88258">
        <ele>485</ele>
        <time>2018-02-04T09:17:27Z</time>
      </trkpt>
      <trkpt lat="43.5662" lon="5.88283">
        <ele>485</ele>
        <time>2018-02-04T09:17:33Z</time>
      </trkpt>
      <trkpt lat="43.56614" lon="5.88307">
        <ele>485</ele>
        <time>2018-02-04T09:17:39Z</time>
      </trkpt>
      <trkpt lat="43.56614" lon="5.88335">
        <ele>485</ele>
        <time>2018-02-04T09:17:46Z</time>
      </trkpt>
      <trkpt lat="43.56613" lon="5.88361">
        <ele>485</ele>
        <time>2018-02-04T09:17:52Z</time>
      </trkpt>
      <trkpt lat="43.56611" lon="5.88388">
        <ele>484</ele>
        <time>2018-02-04T09:17:58Z</time>
      </trkpt>
      <trkpt lat="43.56613" lon="5.88413">
        <ele>484</ele>
        <time>2018-02-04T09:18:03Z</time>
      </trkpt>
      <trkpt lat="43.56625" lon="5.88437">
        <ele>483</ele>
        <time>2018-02-04T09:18:09Z</time>
      </trkpt>
      <trkpt lat="43.56628" lon="5.88463">
        <ele>483</ele>
        <time>2018-02-04T09:18:21Z</time>
      </trkpt>
      <trkpt lat="43.56622" lon="5.88492">
        <ele>482</ele>
        <time>2018-02-04T09:18:26Z</time>
      </trkpt>
      <trkpt lat="43.5662" lon="5.88522">
        <ele>479</ele>
        <time>2018-02-04T09:18:31Z</time>
      </trkpt>
      <trkpt lat="43.56625" lon="5.88548">
        <ele>479</ele>
        <time>2018-02-04T09:18:36Z</time>
      </trkpt>
      <trkpt lat="43.56641" lon="5.8856">
        <ele>479</ele>
        <time>2018-02-04T09:18:42Z</time>
      </trkpt>
      <trkpt lat="43.56658" lon="5.88566">
        <ele>480</ele>
        <time>2018-02-04T09:18:48Z</time>
      </trkpt>
      <trkpt lat="43.56676" lon="5.88571">
        <ele>481</ele>
        <time>2018-02-04T09:18:55Z</time>
      </trkpt>
      <trkpt lat="43.56695" lon="5.88561">
        <ele>481</ele>
        <time>2018-02-04T09:19:03Z</time>
      </trkpt>
      <trkpt lat="43.56715" lon="5.88553">
        <ele>481</ele>
        <time>2018-02-04T09:19:10Z</time>
      </trkpt>
      <trkpt lat="43.56733" lon="5.88544">
        <ele>481</ele>
        <time>2018-02-04T09:19:15Z</time>
      </trkpt>
      <trkpt lat="43.56752" lon="5.88534">
        <ele>480</ele>
        <time>2018-02-04T09:19:20Z</time>
      </trkpt>
      <trkpt lat="43.56771" lon="5.88524">
        <ele>480</ele>
        <time>2018-02-04T09:19:25Z</time>
      </trkpt>
      <trkpt lat="43.56789" lon="5.88515">
        <ele>480</ele>
        <time>2018-02-04T09:19:31Z</time>
      </trkpt>
      <trkpt lat="43.56808" lon="5.88507">
        <ele>479</ele>
        <time>2018-02-04T09:19:37Z</time>
      </trkpt>
      <trkpt lat="43.56826" lon="5.88497">
        <ele>480</ele>
        <time>2018-02-04T09:19:42Z</time>
      </trkpt>
      <trkpt lat="43.56846" lon="5.88487">
        <ele>479</ele>
        <time>2018-02-04T09:19:48Z</time>
      </trkpt>
      <trkpt lat="43.56866" lon="5.88476">
        <ele>480</ele>
        <time>2018-02-04T09:19:54Z</time>
      </trkpt>
      <trkpt lat="43.56883" lon="5.88467">
        <ele>479</ele>
        <time>2018-02-04T09:20:00Z</time>
      </trkpt>
      <trkpt lat="43.56903" lon="5.88457">
        <ele>479</ele>
        <time>2018-02-04T09:20:06Z</time>
      </trkpt>
      <trkpt lat="43.56922" lon="5.88446">
        <ele>478</ele>
        <time>2018-02-04T09:20:12Z</time>
      </trkpt>
      <trkpt lat="43.5694" lon="5.88436">
        <ele>479</ele>
        <time>2018-02-04T09:20:17Z</time>
      </trkpt>
      <trkpt lat="43.56959" lon="5.88425">
        <ele>479</ele>
        <time>2018-02-04T09:20:22Z</time>
      </trkpt>
      <trkpt lat="43.56977" lon="5.88414">
        <ele>481</ele>
        <time>2018-02-04T09:20:27Z</time>
      </trkpt>
      <trkpt lat="43.56996" lon="5.88404">
        <ele>481</ele>
        <time>2018-02-04T09:20:32Z</time>
      </trkpt>
      <trkpt lat="43.57015" lon="5.88394">
        <ele>482</ele>
        <time>2018-02-04T09:20:37Z</time>
      </trkpt>
      <trkpt lat="43.57035" lon="5.88384">
        <ele>483</ele>
        <time>2018-02-04T09:20:43Z</time>
      </trkpt>
      <trkpt lat="43.57051" lon="5.88373">
        <ele>483</ele>
        <time>2018-02-04T09:20:48Z</time>
      </trkpt>
      <trkpt lat="43.5707" lon="5.8836">
        <ele>484</ele>
        <time>2018-02-04T09:20:55Z</time>
      </trkpt>
      <trkpt lat="43.57089" lon="5.88351">
        <ele>485</ele>
        <time>2018-02-04T09:21:01Z</time>
      </trkpt>
      <trkpt lat="43.57107" lon="5.88342">
        <ele>485</ele>
        <time>2018-02-04T09:21:07Z</time>
      </trkpt>
      <trkpt lat="43.57124" lon="5.88329">
        <ele>486</ele>
        <time>2018-02-04T09:21:13Z</time>
      </trkpt>
      <trkpt lat="43.57143" lon="5.88317">
        <ele>487</ele>
        <time>2018-02-04T09:21:19Z</time>
      </trkpt>
      <trkpt lat="43.57162" lon="5.88312">
        <ele>487</ele>
        <time>2018-02-04T09:21:26Z</time>
      </trkpt>
      <trkpt lat="43.57181" lon="5.88309">
        <ele>488</ele>
        <time>2018-02-04T09:21:33Z</time>
      </trkpt>
      <trkpt lat="43.572" lon="5.88305">
        <ele>488</ele>
        <time>2018-02-04T09:21:40Z</time>
      </trkpt>
      <trkpt lat="43.5722" lon="5.88297">
        <ele>488</ele>
        <time>2018-02-04T09:21:47Z</time>
      </trkpt>
      <trkpt lat="43.57239" lon="5.88291">
        <ele>488</ele>
        <time>2018-02-04T09:21:54Z</time>
      </trkpt>
      <trkpt lat="43.57259" lon="5.88288">
        <ele>491</ele>
        <time>2018-02-04T09:22:02Z</time>
      </trkpt>
      <trkpt lat="43.57276" lon="5.88279">
        <ele>491</ele>
        <time>2018-02-04T09:22:10Z</time>
      </trkpt>
      <trkpt lat="43.57294" lon="5.8827">
        <ele>492</ele>
        <time>2018-02-04T09:22:18Z</time>
      </trkpt>
      <trkpt lat="43.57313" lon="5.88262">
        <ele>493</ele>
        <time>2018-02-04T09:22:26Z</time>
      </trkpt>
      <trkpt lat="43.57331" lon="5.88256">
        <ele>494</ele>
        <time>2018-02-04T09:22:34Z</time>
      </trkpt>
      <trkpt lat="43.57336" lon="5.88232">
        <ele>496</ele>
        <time>2018-02-04T09:22:50Z</time>
      </trkpt>
      <trkpt lat="43.57325" lon="5.8821">
        <ele>493</ele>
        <time>2018-02-04T09:22:59Z</time>
      </trkpt>
      <trkpt lat="43.57316" lon="5.88187">
        <ele>493</ele>
        <time>2018-02-04T09:23:09Z</time>
      </trkpt>
      <trkpt lat="43.57315" lon="5.88157">
        <ele>494</ele>
        <time>2018-02-04T09:23:23Z</time>
      </trkpt>
      <trkpt lat="43.57317" lon="5.88131">
        <ele>494</ele>
        <time>2018-02-04T09:23:31Z</time>
      </trkpt>
      <trkpt lat="43.57316" lon="5.88105">
        <ele>494</ele>
        <time>2018-02-04T09:23:41Z</time>
      </trkpt>
      <trkpt lat="43.57309" lon="5.8808">
        <ele>494</ele>
        <time>2018-02-04T09:23:50Z</time>
      </trkpt>
      <trkpt lat="43.57306" lon="5.88051">
        <ele>495</ele>
        <time>2018-02-04T09:23:56Z</time>
      </trkpt>
      <trkpt lat="43.57299" lon="5.88028">
        <ele>495</ele>
        <time>2018-02-04T09:24:04Z</time>
      </trkpt>
      <trkpt lat="43.57287" lon="5.88008">
        <ele>495</ele>
        <time>2018-02-04T09:24:14Z</time>
      </trkpt>
      <trkpt lat="43.57278" lon="5.87986">
        <ele>497</ele>
        <time>2018-02-04T09:24:24Z</time>
      </trkpt>
      <trkpt lat="43.57273" lon="5.87959">
        <ele>497</ele>
        <time>2018-02-04T09:24:31Z</time>
      </trkpt>
      <trkpt lat="43.57265" lon="5.87935">
        <ele>497</ele>
        <time>2018-02-04T09:24:39Z</time>
      </trkpt>
      <trkpt lat="43.57262" lon="5.87909">
        <ele>499</ele>
        <time>2018-02-04T09:24:49Z</time>
      </trkpt>
      <trkpt lat="43.57258" lon="5.8788">
        <ele>501</ele>
        <time>2018-02-04T09:24:57Z</time>
      </trkpt>
      <trkpt lat="43.5726" lon="5.87853">
        <ele>502</ele>
        <time>2018-02-04T09:25:01Z</time>
      </trkpt>
      <trkpt lat="43.57253" lon="5.87828">
        <ele>505</ele>
        <time>2018-02-04T09:25:09Z</time>
      </trkpt>
      <trkpt lat="43.57243" lon="5.87804">
        <ele>504</ele>
        <time>2018-02-04T09:25:17Z</time>
      </trkpt>
      <trkpt lat="43.57231" lon="5.87779">
        <ele>504</ele>
        <time>2018-02-04T09:25:24Z</time>
      </trkpt>
      <trkpt lat="43.57217" lon="5.87763">
        <ele>504</ele>
        <time>2018-02-04T09:25:29Z</time>
      </trkpt>
      <trkpt lat="43.572" lon="5.87747">
        <ele>505</ele>
        <time>2018-02-04T09:25:34Z</time>
      </trkpt>
      <trkpt lat="43.57185" lon="5.87731">
        <ele>504</ele>
        <time>2018-02-04T09:25:41Z</time>
      </trkpt>
      <trkpt lat="43.57184" lon="5.87706">
        <ele>505</ele>
        <time>2018-02-04T09:25:49Z</time>
      </trkpt>
      <trkpt lat="43.5718" lon="5.87681">
        <ele>504</ele>
        <time>2018-02-04T09:25:55Z</time>
      </trkpt>
      <trkpt lat="43.57171" lon="5.87655">
        <ele>504</ele>
        <time>2018-02-04T09:26:02Z</time>
      </trkpt>
      <trkpt lat="43.57167" lon="5.87629">
        <ele>504</ele>
        <time>2018-02-04T09:26:08Z</time>
      </trkpt>
      <trkpt lat="43.5716" lon="5.87601">
        <ele>503</ele>
        <time>2018-02-04T09:26:13Z</time>
      </trkpt>
      <trkpt lat="43.57152" lon="5.87578">
        <ele>502</ele>
        <time>2018-02-04T09:26:17Z</time>
      </trkpt>
      <trkpt lat="43.57144" lon="5.87555">
        <ele>502</ele>
        <time>2018-02-04T09:26:21Z</time>
      </trkpt>
      <trkpt lat="43.57132" lon="5.87529">
        <ele>502</ele>
        <time>2018-02-04T09:26:26Z</time>
      </trkpt>
      <trkpt lat="43.57123" lon="5.87507">
        <ele>502</ele>
        <time>2018-02-04T09:26:30Z</time>
      </trkpt>
      <trkpt lat="43.57116" lon="5.87483">
        <ele>502</ele>
        <time>2018-02-04T09:26:36Z</time>
      </trkpt>
      <trkpt lat="43.57104" lon="5.87465">
        <ele>502</ele>
        <time>2018-02-04T09:26:44Z</time>
      </trkpt>
      <trkpt lat="43.5709" lon="5.87445">
        <ele>501</ele>
        <time>2018-02-04T09:26:50Z</time>
      </trkpt>
      <trkpt lat="43.57075" lon="5.87424">
        <ele>501</ele>
        <time>2018-02-04T09:26:55Z</time>
      </trkpt>
      <trkpt lat="43.5706" lon="5.87407">
        <ele>502</ele>
        <time>2018-02-04T09:27:00Z</time>
      </trkpt>
      <trkpt lat="43.57044" lon="5.87393">
        <ele>503</ele>
        <time>2018-02-04T09:27:14Z</time>
      </trkpt>
      <trkpt lat="43.57042" lon="5.87368">
        <ele>503</ele>
        <time>2018-02-04T09:27:44Z</time>
      </trkpt>
      <trkpt lat="43.57023" lon="5.87363">
        <ele>503</ele>
        <time>2018-02-04T09:28:22Z</time>
      </trkpt>
      <trkpt lat="43.57014" lon="5.87339">
        <ele>502</ele>
        <time>2018-02-04T09:28:31Z</time>
      </trkpt>
      <trkpt lat="43.57002" lon="5.87316">
        <ele>502</ele>
        <time>2018-02-04T09:28:38Z</time>
      </trkpt>
      <trkpt lat="43.56993" lon="5.87293">
        <ele>500</ele>
        <time>2018-02-04T09:28:45Z</time>
      </trkpt>
      <trkpt lat="43.56985" lon="5.87267">
        <ele>499</ele>
        <time>2018-02-04T09:28:51Z</time>
      </trkpt>
      <trkpt lat="43.5698" lon="5.87242">
        <ele>497</ele>
        <time>2018-02-04T09:28:57Z</time>
      </trkpt>
      <trkpt lat="43.56974" lon="5.87217">
        <ele>497</ele>
        <time>2018-02-04T09:29:02Z</time>
      </trkpt>
      <trkpt lat="43.56969" lon="5.87188">
        <ele>496</ele>
        <time>2018-02-04T09:29:07Z</time>
      </trkpt>
      <trkpt lat="43.56968" lon="5.87163">
        <ele>495</ele>
        <time>2018-02-04T09:29:12Z</time>
      </trkpt>
      <trkpt lat="43.56968" lon="5.87131">
        <ele>495</ele>
        <time>2018-02-04T09:29:17Z</time>
      </trkpt>
      <trkpt lat="43.56962" lon="5.87106">
        <ele>495</ele>
        <time>2018-02-04T09:29:22Z</time>
      </trkpt>
      <trkpt lat="43.56955" lon="5.87077">
        <ele>495</ele>
        <time>2018-02-04T09:29:27Z</time>
      </trkpt>
      <trkpt lat="43.56945" lon="5.87052">
        <ele>495</ele>
        <time>2018-02-04T09:29:32Z</time>
      </trkpt>
      <trkpt lat="43.5694" lon="5.87024">
        <ele>495</ele>
        <time>2018-02-04T09:29:36Z</time>
      </trkpt>
      <trkpt lat="43.56936" lon="5.86998">
        <ele>494</ele>
        <time>2018-02-04T09:29:40Z</time>
      </trkpt>
      <trkpt lat="43.56933" lon="5.86971">
        <ele>493</ele>
        <time>2018-02-04T09:29:44Z</time>
      </trkpt>
      <trkpt lat="43.56933" lon="5.86941">
        <ele>493</ele>
        <time>2018-02-04T09:29:47Z</time>
      </trkpt>
      <trkpt lat="43.5693" lon="5.86912">
        <ele>491</ele>
        <time>2018-02-04T09:29:51Z</time>
      </trkpt>
      <trkpt lat="43.56925" lon="5.86885">
        <ele>490</ele>
        <time>2018-02-04T09:29:55Z</time>
      </trkpt>
      <trkpt lat="43.56918" lon="5.86859">
        <ele>489</ele>
        <time>2018-02-04T09:29:59Z</time>
      </trkpt>
      <trkpt lat="43.56915" lon="5.8683">
        <ele>486</ele>
        <time>2018-02-04T09:30:03Z</time>
      </trkpt>
      <trkpt lat="43.56912" lon="5.86802">
        <ele>485</ele>
        <time>2018-02-04T09:30:06Z</time>
      </trkpt>
      <trkpt lat="43.56907" lon="5.86775">
        <ele>484</ele>
        <time>2018-02-04T09:30:11Z</time>
      </trkpt>
      <trkpt lat="43.56903" lon="5.86746">
        <ele>482</ele>
        <time>2018-02-04T09:30:16Z</time>
      </trkpt>
      <trkpt lat="43.56904" lon="5.86714">
        <ele>481</ele>
        <time>2018-02-04T09:30:20Z</time>
      </trkpt>
      <trkpt lat="43.5691" lon="5.86684">
        <ele>480</ele>
        <time>2018-02-04T09:30:24Z</time>
      </trkpt>
      <trkpt lat="43.56913" lon="5.86658">
        <ele>480</ele>
        <time>2018-02-04T09:30:30Z</time>
      </trkpt>
      <trkpt lat="43.56917" lon="5.86634">
        <ele>481</ele>
        <time>2018-02-04T09:30:38Z</time>
      </trkpt>
      <trkpt lat="43.5692" lon="5.86609">
        <ele>481</ele>
        <time>2018-02-04T09:32:27Z</time>
      </trkpt>
      <trkpt lat="43.56906" lon="5.86588">
        <ele>480</ele>
        <time>2018-02-04T09:32:37Z</time>
      </trkpt>
      <trkpt lat="43.56898" lon="5.86565">
        <ele>481</ele>
        <time>2018-02-04T09:32:47Z</time>
      </trkpt>
      <trkpt lat="43.56896" lon="5.86538">
        <ele>481</ele>
        <time>2018-02-04T09:32:55Z</time>
      </trkpt>
      <trkpt lat="43.56898" lon="5.86514">
        <ele>482</ele>
        <time>2018-02-04T09:33:02Z</time>
      </trkpt>
      <trkpt lat="43.56901" lon="5.86486">
        <ele>483</ele>
        <time>2018-02-04T09:33:10Z</time>
      </trkpt>
      <trkpt lat="43.56902" lon="5.86459">
        <ele>483</ele>
        <time>2018-02-04T09:33:17Z</time>
      </trkpt>
      <trkpt lat="43.56906" lon="5.86432">
        <ele>484</ele>
        <time>2018-02-04T09:33:24Z</time>
      </trkpt>
      <trkpt lat="43.56908" lon="5.86406">
        <ele>484</ele>
        <time>2018-02-04T09:33:31Z</time>
      </trkpt>
      <trkpt lat="43.56917" lon="5.86384">
        <ele>486</ele>
        <time>2018-02-04T09:33:37Z</time>
      </trkpt>
      <trkpt lat="43.56927" lon="5.8636">
        <ele>486</ele>
        <time>2018-02-04T09:33:44Z</time>
      </trkpt>
      <trkpt lat="43.56938" lon="5.86338">
        <ele>486</ele>
        <time>2018-02-04T09:33:51Z</time>
      </trkpt>
      <trkpt lat="43.56945" lon="5.86314">
        <ele>486</ele>
        <time>2018-02-04T09:33:58Z</time>
      </trkpt>
      <trkpt lat="43.56953" lon="5.86292">
        <ele>486</ele>
        <time>2018-02-04T09:34:05Z</time>
      </trkpt>
      <trkpt lat="43.56951" lon="5.86265">
        <ele>486</ele>
        <time>2018-02-04T09:34:13Z</time>
      </trkpt>
      <trkpt lat="43.56946" lon="5.86239">
        <ele>485</ele>
        <time>2018-02-04T09:34:21Z</time>
      </trkpt>
      <trkpt lat="43.56943" lon="5.86213">
        <ele>485</ele>
        <time>2018-02-04T09:34:29Z</time>
      </trkpt>
      <trkpt lat="43.56942" lon="5.86187">
        <ele>485</ele>
        <time>2018-02-04T09:34:38Z</time>
      </trkpt>
      <trkpt lat="43.56936" lon="5.86161">
        <ele>485</ele>
        <time>2018-02-04T09:34:47Z</time>
      </trkpt>
      <trkpt lat="43.56933" lon="5.86135">
        <ele>485</ele>
        <time>2018-02-04T09:34:54Z</time>
      </trkpt>
      <trkpt lat="43.56934" lon="5.86107">
        <ele>486</ele>
        <time>2018-02-04T09:35:01Z</time>
      </trkpt>
      <trkpt lat="43.56934" lon="5.8608">
        <ele>486</ele>
        <time>2018-02-04T09:37:32Z</time>
      </trkpt>
      <trkpt lat="43.56933" lon="5.86053">
        <ele>486</ele>
        <time>2018-02-04T09:37:41Z</time>
      </trkpt>
      <trkpt lat="43.56931" lon="5.86027">
        <ele>485</ele>
        <time>2018-02-04T09:37:49Z</time>
      </trkpt>
      <trkpt lat="43.56923" lon="5.86005">
        <ele>485</ele>
        <time>2018-02-04T09:37:56Z</time>
      </trkpt>
      <trkpt lat="43.56922" lon="5.85977">
        <ele>485</ele>
        <time>2018-02-04T09:38:02Z</time>
      </trkpt>
      <trkpt lat="43.56922" lon="5.85949">
        <ele>484</ele>
        <time>2018-02-04T09:38:08Z</time>
      </trkpt>
      <trkpt lat="43.56921" lon="5.85919">
        <ele>483</ele>
        <time>2018-02-04T09:38:14Z</time>
      </trkpt>
      <trkpt lat="43.56918" lon="5.85892">
        <ele>483</ele>
        <time>2018-02-04T09:38:20Z</time>
      </trkpt>
      <trkpt lat="43.56917" lon="5.85867">
        <ele>482</ele>
        <time>2018-02-04T09:38:25Z</time>
      </trkpt>
      <trkpt lat="43.56916" lon="5.85841">
        <ele>480</ele>
        <time>2018-02-04T09:38:30Z</time>
      </trkpt>
      <trkpt lat="43.56919" lon="5.8581">
        <ele>480</ele>
        <time>2018-02-04T09:38:35Z</time>
      </trkpt>
      <trkpt lat="43.5692" lon="5.85783">
        <ele>480</ele>
        <time>2018-02-04T09:38:39Z</time>
      </trkpt>
      <trkpt lat="43.56918" lon="5.85754">
        <ele>478</ele>
        <time>2018-02-04T09:38:44Z</time>
      </trkpt>
      <trkpt lat="43.56918" lon="5.85726">
        <ele>479</ele>
        <time>2018-02-04T09:38:49Z</time>
      </trkpt>
      <trkpt lat="43.56915" lon="5.85699">
        <ele>477</ele>
        <time>2018-02-04T09:38:57Z</time>
      </trkpt>
      <trkpt lat="43.56914" lon="5.85674">
        <ele>477</ele>
        <time>2018-02-04T09:39:07Z</time>
      </trkpt>
      <trkpt lat="43.56904" lon="5.85654">
        <ele>476</ele>
      </trkpt>
      <trkpt lat="43.569" lon="5.85633">
        <ele>476</ele>
      </trkpt>
      <trkpt lat="43.56902" lon="5.85602">
        <ele>476</ele>
      </trkpt>
      <trkpt lat="43.56902" lon="5.85583">
        <ele>476</ele>
      </trkpt>
      <trkpt lat="43.56902" lon="5.85548">
        <ele>476</ele>
      </trkpt>
      <trkpt lat="43.569" lon="5.85503">
        <ele>476</ele>
      </trkpt>
      <trkpt lat="43.56903" lon="5.85465">
        <ele>477</ele>
      </trkpt>
      <trkpt lat="43.56895" lon="5.85407">
        <ele>478</ele>
      </trkpt>
      <trkpt lat="43.56892" lon="5.85378">
        <ele>477</ele>
      </trkpt>
      <trkpt lat="43.56895" lon="5.85359">
        <ele>478</ele>
      </trkpt>
      <trkpt lat="43.56895" lon="5.85334">
        <ele>478</ele>
      </trkpt>
      <trkpt lat="43.56886" lon="5.85313">
        <ele>477</ele>
      </trkpt>
      <trkpt lat="43.56882" lon="5.85306">
        <ele>476</ele>
      </trkpt>
      <trkpt lat="43.56876" lon="5.85307">
        <ele>476</ele>
      </trkpt>
      <trkpt lat="43.56863" lon="5.85324">
        <ele>475</ele>
      </trkpt>
      <trkpt lat="43.5686" lon="5.85343">
        <ele>475</ele>
      </trkpt>
      <trkpt lat="43.56857" lon="5.85383">
        <ele>476</ele>
      </trkpt>
      <trkpt lat="43.56848" lon="5.85402">
        <ele>475</ele>
      </trkpt>
      <trkpt lat="43.56827" lon="5.85424">
        <ele>473</ele>
      </trkpt>
      <trkpt lat="43.56823" lon="5.85447">
        <ele>474</ele>
      </trkpt>
      <trkpt lat="43.56831" lon="5.85476">
        <ele>475</ele>
        <time>2018-02-04T09:47:27Z</time>
      </trkpt>
      <trkpt lat="43.56833" lon="5.85503">
        <ele>475</ele>
        <time>2018-02-04T09:47:33Z</time>
      </trkpt>
      <trkpt lat="43.56835" lon="5.85529">
        <ele>475</ele>
        <time>2018-02-04T09:47:39Z</time>
      </trkpt>
      <trkpt lat="43.56838" lon="5.85554">
        <ele>475</ele>
        <time>2018-02-04T09:47:45Z</time>
      </trkpt>
      <trkpt lat="43.56837" lon="5.8558">
        <ele>474</ele>
        <time>2018-02-04T09:47:51Z</time>
      </trkpt>
      <trkpt lat="43.56838" lon="5.85606">
        <ele>475</ele>
        <time>2018-02-04T09:47:57Z</time>
      </trkpt>
      <trkpt lat="43.5684" lon="5.85633">
        <ele>475</ele>
        <time>2018-02-04T09:48:03Z</time>
      </trkpt>
      <trkpt lat="43.56837" lon="5.85659">
        <ele>475</ele>
        <time>2018-02-04T09:49:13Z</time>
      </trkpt>
      <trkpt lat="43.5682" lon="5.85671">
        <ele>478</ele>
        <time>2018-02-04T09:49:24Z</time>
      </trkpt>
      <trkpt lat="43.568" lon="5.85679">
        <ele>480</ele>
        <time>2018-02-04T09:49:36Z</time>
      </trkpt>
      <trkpt lat="43.56782" lon="5.85689">
        <ele>481</ele>
        <time>2018-02-04T09:49:46Z</time>
      </trkpt>
      <trkpt lat="43.56767" lon="5.85702">
        <ele>482</ele>
        <time>2018-02-04T09:49:57Z</time>
      </trkpt>
      <trkpt lat="43.56759" lon="5.85725">
        <ele>483</ele>
        <time>2018-02-04T09:50:09Z</time>
      </trkpt>
      <trkpt lat="43.56753" lon="5.85749">
        <ele>486</ele>
        <time>2018-02-04T09:50:19Z</time>
      </trkpt>
      <trkpt lat="43.56743" lon="5.85772">
        <ele>487</ele>
        <time>2018-02-04T09:50:30Z</time>
      </trkpt>
      <trkpt lat="43.56734" lon="5.85794">
        <ele>487</ele>
        <time>2018-02-04T09:50:40Z</time>
      </trkpt>
      <trkpt lat="43.56721" lon="5.85812">
        <ele>487</ele>
        <time>2018-02-04T09:50:49Z</time>
      </trkpt>
      <trkpt lat="43.56701" lon="5.85814">
        <ele>487</ele>
        <time>2018-02-04T09:51:01Z</time>
      </trkpt>
      <trkpt lat="43.56684" lon="5.85828">
        <ele>488</ele>
        <time>2018-02-04T09:51:11Z</time>
      </trkpt>
      <trkpt lat="43.56675" lon="5.8585">
        <ele>489</ele>
        <time>2018-02-04T09:52:06Z</time>
      </trkpt>
      <trkpt lat="43.56662" lon="5.8587">
        <ele>490</ele>
        <time>2018-02-04T09:52:15Z</time>
      </trkpt>
      <trkpt lat="43.56643" lon="5.85873">
        <ele>490</ele>
        <time>2018-02-04T09:52:22Z</time>
      </trkpt>
      <trkpt lat="43.56627" lon="5.8589">
        <ele>490</ele>
        <time>2018-02-04T09:52:30Z</time>
      </trkpt>
      <trkpt lat="43.56623" lon="5.85917">
        <ele>492</ele>
        <time>2018-02-04T09:52:38Z</time>
      </trkpt>
      <trkpt lat="43.56606" lon="5.85933">
        <ele>492</ele>
        <time>2018-02-04T09:52:45Z</time>
      </trkpt>
      <trkpt lat="43.56588" lon="5.85945">
        <ele>492</ele>
        <time>2018-02-04T09:52:50Z</time>
      </trkpt>
      <trkpt lat="43.56572" lon="5.85961">
        <ele>491</ele>
        <time>2018-02-04T09:52:55Z</time>
      </trkpt>
      <trkpt lat="43.56574" lon="5.85987">
        <ele>491</ele>
        <time>2018-02-04T09:53:08Z</time>
      </trkpt>
      <trkpt lat="43.56592" lon="5.85998">
        <ele>492</ele>
        <time>2018-02-04T09:53:16Z</time>
      </trkpt>
      <trkpt lat="43.5661" lon="5.86004">
        <ele>491</ele>
        <time>2018-02-04T09:53:23Z</time>
      </trkpt>
      <trkpt lat="43.56611" lon="5.86031">
        <ele>490</ele>
        <time>2018-02-04T09:53:30Z</time>
      </trkpt>
      <trkpt lat="43.56606" lon="5.86056">
        <ele>490</ele>
        <time>2018-02-04T09:53:36Z</time>
      </trkpt>
      <trkpt lat="43.56601" lon="5.86083">
        <ele>490</ele>
        <time>2018-02-04T09:53:43Z</time>
      </trkpt>
      <trkpt lat="43.56598" lon="5.86111">
        <ele>489</ele>
        <time>2018-02-04T09:53:50Z</time>
      </trkpt>
      <trkpt lat="43.56596" lon="5.8614">
        <ele>489</ele>
        <time>2018-02-04T09:53:56Z</time>
      </trkpt>
      <trkpt lat="43.56597" lon="5.86168">
        <ele>490</ele>
        <time>2018-02-04T09:54:03Z</time>
      </trkpt>
      <trkpt lat="43.56579" lon="5.86178">
        <ele>490</ele>
        <time>2018-02-04T09:54:11Z</time>
      </trkpt>
      <trkpt lat="43.56563" lon="5.86189">
        <ele>490</ele>
        <time>2018-02-04T09:54:18Z</time>
      </trkpt>
      <trkpt lat="43.56549" lon="5.86205">
        <ele>490</ele>
        <time>2018-02-04T09:54:28Z</time>
      </trkpt>
      <trkpt lat="43.56531" lon="5.86219">
        <ele>490</ele>
        <time>2018-02-04T09:55:41Z</time>
      </trkpt>
      <trkpt lat="43.56515" lon="5.86231">
        <ele>490</ele>
        <time>2018-02-04T09:55:48Z</time>
      </trkpt>
      <trkpt lat="43.565" lon="5.86246">
        <ele>490</ele>
        <time>2018-02-04T09:55:55Z</time>
      </trkpt>
      <trkpt lat="43.56482" lon="5.86257">
        <ele>489</ele>
        <time>2018-02-04T09:56:03Z</time>
      </trkpt>
      <trkpt lat="43.56465" lon="5.86268">
        <ele>489</ele>
        <time>2018-02-04T09:56:10Z</time>
      </trkpt>
      <trkpt lat="43.56447" lon="5.86277">
        <ele>489</ele>
        <time>2018-02-04T09:56:16Z</time>
      </trkpt>
      <trkpt lat="43.56425" lon="5.8628">
        <ele>488</ele>
        <time>2018-02-04T09:56:22Z</time>
      </trkpt>
      <trkpt lat="43.56404" lon="5.86286">
        <ele>485</ele>
        <time>2018-02-04T09:56:27Z</time>
      </trkpt>
      <trkpt lat="43.56386" lon="5.86285">
        <ele>485</ele>
        <time>2018-02-04T09:56:31Z</time>
      </trkpt>
      <trkpt lat="43.56367" lon="5.86285">
        <ele>484</ele>
        <time>2018-02-04T09:56:35Z</time>
      </trkpt>
      <trkpt lat="43.56348" lon="5.86291">
        <ele>483</ele>
        <time>2018-02-04T09:56:39Z</time>
      </trkpt>
      <trkpt lat="43.56327" lon="5.8629">
        <ele>481</ele>
        <time>2018-02-04T09:56:43Z</time>
      </trkpt>
      <trkpt lat="43.56305" lon="5.86288">
        <ele>480</ele>
        <time>2018-02-04T09:56:47Z</time>
      </trkpt>
      <trkpt lat="43.56284" lon="5.86281">
        <ele>480</ele>
        <time>2018-02-04T09:56:51Z</time>
      </trkpt>
      <trkpt lat="43.56266" lon="5.8628">
        <ele>480</ele>
        <time>2018-02-04T09:57:19Z</time>
      </trkpt>
      <trkpt lat="43.56247" lon="5.86278">
        <ele>478</ele>
        <time>2018-02-04T09:57:40Z</time>
      </trkpt>
      <trkpt lat="43.56229" lon="5.86278">
        <ele>477</ele>
        <time>2018-02-04T09:57:51Z</time>
      </trkpt>
      <trkpt lat="43.56209" lon="5.86287">
        <ele>477</ele>
        <time>2018-02-04T09:58:00Z</time>
      </trkpt>
      <trkpt lat="43.5619" lon="5.86293">
        <ele>476</ele>
        <time>2018-02-04T09:58:07Z</time>
      </trkpt>
      <trkpt lat="43.56171" lon="5.86301">
        <ele>476</ele>
        <time>2018-02-04T09:58:14Z</time>
      </trkpt>
      <trkpt lat="43.56153" lon="5.86306">
        <ele>471</ele>
        <time>2018-02-04T09:58:21Z</time>
      </trkpt>
      <trkpt lat="43.56133" lon="5.86314">
        <ele>470</ele>
        <time>2018-02-04T09:58:27Z</time>
      </trkpt>
      <trkpt lat="43.56115" lon="5.86312">
        <ele>469</ele>
        <time>2018-02-04T09:58:31Z</time>
      </trkpt>
      <trkpt lat="43.56096" lon="5.86307">
        <ele>468</ele>
        <time>2018-02-04T09:58:34Z</time>
      </trkpt>
      <trkpt lat="43.56077" lon="5.863">
        <ele>460</ele>
        <time>2018-02-04T09:58:37Z</time>
      </trkpt>
      <trkpt lat="43.56058" lon="5.86294">
        <ele>459</ele>
        <time>2018-02-04T09:58:40Z</time>
      </trkpt>
      <trkpt lat="43.56035" lon="5.86282">
        <ele>457</ele>
        <time>2018-02-04T09:58:43Z</time>
      </trkpt>
      <trkpt lat="43.56013" lon="5.86274">
        <ele>456</ele>
        <time>2018-02-04T09:58:46Z</time>
      </trkpt>
      <trkpt lat="43.55996" lon="5.86268">
        <ele>451</ele>
        <time>2018-02-04T09:58:49Z</time>
      </trkpt>
      <trkpt lat="43.55978" lon="5.8626">
        <ele>451</ele>
        <time>2018-02-04T09:58:53Z</time>
      </trkpt>
      <trkpt lat="43.55957" lon="5.86255">
        <ele>450</ele>
        <time>2018-02-04T09:58:57Z</time>
      </trkpt>
      <trkpt lat="43.55939" lon="5.86247">
        <ele>449</ele>
        <time>2018-02-04T09:59:03Z</time>
      </trkpt>
      <trkpt lat="43.55947" lon="5.86223">
        <ele>450</ele>
        <time>2018-02-04T09:59:17Z</time>
      </trkpt>
      <trkpt lat="43.55964" lon="5.86211">
        <ele>450</ele>
        <time>2018-02-04T09:59:24Z</time>
      </trkpt>
      <trkpt lat="43.55975" lon="5.86192">
        <ele>450</ele>
        <time>2018-02-04T09:59:33Z</time>
      </trkpt>
      <trkpt lat="43.55979" lon="5.86167">
        <ele>450</ele>
        <time>2018-02-04T09:59:44Z</time>
      </trkpt>
      <trkpt lat="43.55994" lon="5.8615">
        <ele>451</ele>
        <time>2018-02-04T09:59:52Z</time>
      </trkpt>
      <trkpt lat="43.56003" lon="5.86122">
        <ele>450</ele>
        <time>2018-02-04T09:59:59Z</time>
      </trkpt>
      <trkpt lat="43.55999" lon="5.86095">
        <ele>451</ele>
        <time>2018-02-04T10:00:05Z</time>
      </trkpt>
      <trkpt lat="43.55997" lon="5.86068">
        <ele>454</ele>
        <time>2018-02-04T10:00:14Z</time>
      </trkpt>
      <trkpt lat="43.55996" lon="5.8604">
        <ele>456</ele>
        <time>2018-02-04T10:00:20Z</time>
      </trkpt>
      <trkpt lat="43.55991" lon="5.86014">
        <ele>456</ele>
        <time>2018-02-04T10:00:26Z</time>
      </trkpt>
      <trkpt lat="43.55986" lon="5.85988">
        <ele>458</ele>
        <time>2018-02-04T10:00:33Z</time>
      </trkpt>
      <trkpt lat="43.55985" lon="5.85962">
        <ele>460</ele>
        <time>2018-02-04T10:00:42Z</time>
      </trkpt>
      <trkpt lat="43.55995" lon="5.85939">
        <ele>459</ele>
        <time>2018-02-04T10:00:53Z</time>
      </trkpt>
      <trkpt lat="43.56011" lon="5.85927">
        <ele>455</ele>
        <time>2018-02-04T10:00:57Z</time>
      </trkpt>
      <trkpt lat="43.56029" lon="5.85909">
        <ele>458</ele>
        <time>2018-02-04T10:01:01Z</time>
      </trkpt>
      <trkpt lat="43.56047" lon="5.85894">
        <ele>458</ele>
        <time>2018-02-04T10:01:07Z</time>
      </trkpt>
      <trkpt lat="43.56062" lon="5.8588">
        <ele>458</ele>
        <time>2018-02-04T10:01:12Z</time>
      </trkpt>
      <trkpt lat="43.56069" lon="5.85855">
        <ele>458</ele>
        <time>2018-02-04T10:01:19Z</time>
      </trkpt>
      <trkpt lat="43.56078" lon="5.85832">
        <ele>458</ele>
        <time>2018-02-04T10:01:27Z</time>
      </trkpt>
      <trkpt lat="43.56081" lon="5.85805">
        <ele>460</ele>
        <time>2018-02-04T10:01:33Z</time>
      </trkpt>
      <trkpt lat="43.56081" lon="5.85776">
        <ele>461</ele>
        <time>2018-02-04T10:01:39Z</time>
      </trkpt>
      <trkpt lat="43.56079" lon="5.85749">
        <ele>459</ele>
        <time>2018-02-04T10:01:45Z</time>
      </trkpt>
      <trkpt lat="43.56073" lon="5.85721">
        <ele>462</ele>
        <time>2018-02-04T10:01:52Z</time>
      </trkpt>
      <trkpt lat="43.56067" lon="5.85695">
        <ele>463</ele>
        <time>2018-02-04T10:01:59Z</time>
      </trkpt>
      <trkpt lat="43.56065" lon="5.85667">
        <ele>462</ele>
        <time>2018-02-04T10:02:05Z</time>
      </trkpt>
      <trkpt lat="43.56062" lon="5.85639">
        <ele>465</ele>
        <time>2018-02-04T10:02:11Z</time>
      </trkpt>
      <trkpt lat="43.56057" lon="5.85613">
        <ele>466</ele>
        <time>2018-02-04T10:02:17Z</time>
      </trkpt>
      <trkpt lat="43.56059" lon="5.85586">
        <ele>466</ele>
        <time>2018-02-04T10:02:23Z</time>
      </trkpt>
      <trkpt lat="43.56059" lon="5.85559">
        <ele>468</ele>
        <time>2018-02-04T10:02:29Z</time>
      </trkpt>
      <trkpt lat="43.56059" lon="5.85532">
        <ele>468</ele>
        <time>2018-02-04T10:02:36Z</time>
      </trkpt>
      <trkpt lat="43.56061" lon="5.85505">
        <ele>468</ele>
        <time>2018-02-04T10:02:44Z</time>
      </trkpt>
      <trkpt lat="43.56058" lon="5.85481">
        <ele>468</ele>
        <time>2018-02-04T10:02:51Z</time>
      </trkpt>
      <trkpt lat="43.56058" lon="5.85454">
        <ele>468</ele>
        <time>2018-02-04T10:02:59Z</time>
      </trkpt>
      <trkpt lat="43.56062" lon="5.85427">
        <ele>467</ele>
        <time>2018-02-04T10:03:08Z</time>
      </trkpt>
      <trkpt lat="43.56071" lon="5.85404">
        <ele>468</ele>
        <time>2018-02-04T10:04:39Z</time>
      </trkpt>
      <trkpt lat="43.56077" lon="5.85377">
        <ele>469</ele>
        <time>2018-02-04T10:04:50Z</time>
      </trkpt>
      <trkpt lat="43.5608" lon="5.8535">
        <ele>468</ele>
        <time>2018-02-04T10:04:58Z</time>
      </trkpt>
      <trkpt lat="43.56091" lon="5.85326">
        <ele>467</ele>
        <time>2018-02-04T10:05:08Z</time>
      </trkpt>
      <trkpt lat="43.56092" lon="5.853">
        <ele>468</ele>
        <time>2018-02-04T10:05:18Z</time>
      </trkpt>
      <trkpt lat="43.56089" lon="5.85274">
        <ele>469</ele>
        <time>2018-02-04T10:05:27Z</time>
      </trkpt>
      <trkpt lat="43.56072" lon="5.85258">
        <ele>471</ele>
        <time>2018-02-04T10:05:36Z</time>
      </trkpt>
      <trkpt lat="43.56057" lon="5.85243">
        <ele>472</ele>
        <time>2018-02-04T10:05:45Z</time>
      </trkpt>
      <trkpt lat="43.56044" lon="5.85223">
        <ele>473</ele>
        <time>2018-02-04T10:05:57Z</time>
      </trkpt>
      <trkpt lat="43.56032" lon="5.85203">
        <ele>473</ele>
        <time>2018-02-04T10:06:07Z</time>
      </trkpt>
      <trkpt lat="43.56022" lon="5.85182">
        <ele>473</ele>
        <time>2018-02-04T10:06:15Z</time>
      </trkpt>
      <trkpt lat="43.56009" lon="5.85164">
        <ele>474</ele>
        <time>2018-02-04T10:06:24Z</time>
      </trkpt>
      <trkpt lat="43.55994" lon="5.85147">
        <ele>477</ele>
        <time>2018-02-04T10:06:32Z</time>
      </trkpt>
      <trkpt lat="43.55979" lon="5.85132">
        <ele>479</ele>
        <time>2018-02-04T10:06:40Z</time>
      </trkpt>
      <trkpt lat="43.55968" lon="5.85111">
        <ele>480</ele>
        <time>2018-02-04T10:06:48Z</time>
      </trkpt>
      <trkpt lat="43.55958" lon="5.85087">
        <ele>480</ele>
        <time>2018-02-04T10:06:56Z</time>
      </trkpt>
      <trkpt lat="43.5595" lon="5.85064">
        <ele>481</ele>
        <time>2018-02-04T10:07:04Z</time>
      </trkpt>
      <trkpt lat="43.55968" lon="5.85071">
        <ele>481</ele>
        <time>2018-02-04T10:07:29Z</time>
      </trkpt>
      <trkpt lat="43.55984" lon="5.85082">
        <ele>480</ele>
        <time>2018-02-04T10:07:38Z</time>
      </trkpt>
      <trkpt lat="43.56003" lon="5.85091">
        <ele>478</ele>
        <time>2018-02-04T10:07:48Z</time>
      </trkpt>
      <trkpt lat="43.56022" lon="5.85097">
        <ele>476</ele>
        <time>2018-02-04T10:07:57Z</time>
      </trkpt>
      <trkpt lat="43.56033" lon="5.85077">
        <ele>477</ele>
        <time>2018-02-04T10:08:10Z</time>
      </trkpt>
      <trkpt lat="43.56024" lon="5.85054">
        <ele>478</ele>
        <time>2018-02-04T10:08:19Z</time>
      </trkpt>
      <trkpt lat="43.56015" lon="5.85032">
        <ele>478</ele>
        <time>2018-02-04T10:08:27Z</time>
      </trkpt>
      <trkpt lat="43.56009" lon="5.85009">
        <ele>480</ele>
        <time>2018-02-04T10:08:35Z</time>
      </trkpt>
      <trkpt lat="43.56001" lon="5.84984">
        <ele>481</ele>
        <time>2018-02-04T10:08:43Z</time>
      </trkpt>
      <trkpt lat="43.5599" lon="5.84965">
        <ele>484</ele>
        <time>2018-02-04T10:08:51Z</time>
      </trkpt>
      <trkpt lat="43.55973" lon="5.84951">
        <ele>485</ele>
        <time>2018-02-04T10:08:59Z</time>
      </trkpt>
      <trkpt lat="43.55958" lon="5.84934">
        <ele>485</ele>
        <time>2018-02-04T10:09:08Z</time>
      </trkpt>
      <trkpt lat="43.5595" lon="5.84912">
        <ele>489</ele>
        <time>2018-02-04T10:09:16Z</time>
      </trkpt>
      <trkpt lat="43.55951" lon="5.84886">
        <ele>489</ele>
        <time>2018-02-04T10:09:26Z</time>
      </trkpt>
      <trkpt lat="43.55955" lon="5.84861">
        <ele>490</ele>
        <time>2018-02-04T10:09:36Z</time>
      </trkpt>
      <trkpt lat="43.55952" lon="5.84835">
        <ele>490</ele>
        <time>2018-02-04T10:09:45Z</time>
      </trkpt>
      <trkpt lat="43.55956" lon="5.8481">
        <ele>493</ele>
        <time>2018-02-04T10:09:55Z</time>
      </trkpt>
      <trkpt lat="43.55964" lon="5.84788">
        <ele>493</ele>
        <time>2018-02-04T10:14:03Z</time>
      </trkpt>
      <trkpt lat="43.55946" lon="5.84801">
        <ele>493</ele>
        <time>2018-02-04T10:14:18Z</time>
      </trkpt>
      <trkpt lat="43.55932" lon="5.84818">
        <ele>494</ele>
        <time>2018-02-04T10:14:29Z</time>
      </trkpt>
      <trkpt lat="43.55916" lon="5.84831">
        <ele>496</ele>
        <time>2018-02-04T10:14:39Z</time>
      </trkpt>
      <trkpt lat="43.55897" lon="5.84837">
        <ele>494</ele>
        <time>2018-02-04T10:14:49Z</time>
      </trkpt>
      <trkpt lat="43.5588" lon="5.84827">
        <ele>499</ele>
        <time>2018-02-04T10:14:57Z</time>
      </trkpt>
      <trkpt lat="43.55867" lon="5.84807">
        <ele>500</ele>
        <time>2018-02-04T10:15:09Z</time>
      </trkpt>
      <trkpt lat="43.55847" lon="5.84803">
        <ele>501</ele>
        <time>2018-02-04T10:15:18Z</time>
      </trkpt>
      <trkpt lat="43.55829" lon="5.84808">
        <ele>503</ele>
        <time>2018-02-04T10:15:27Z</time>
      </trkpt>
      <trkpt lat="43.5581" lon="5.84812">
        <ele>504</ele>
        <time>2018-02-04T10:15:35Z</time>
      </trkpt>
      <trkpt lat="43.55791" lon="5.84809">
        <ele>505</ele>
        <time>2018-02-04T10:15:44Z</time>
      </trkpt>
      <trkpt lat="43.55772" lon="5.84802">
        <ele>505</ele>
        <time>2018-02-04T10:15:53Z</time>
      </trkpt>
      <trkpt lat="43.55755" lon="5.84795">
        <ele>506</ele>
        <time>2018-02-04T10:16:01Z</time>
      </trkpt>
      <trkpt lat="43.55735" lon="5.84789">
        <ele>509</ele>
        <time>2018-02-04T10:16:09Z</time>
      </trkpt>
      <trkpt lat="43.55717" lon="5.84785">
        <ele>509</ele>
        <time>2018-02-04T10:16:17Z</time>
      </trkpt>
      <trkpt lat="43.55698" lon="5.84782">
        <ele>509</ele>
        <time>2018-02-04T10:16:24Z</time>
      </trkpt>
      <trkpt lat="43.5568" lon="5.84779">
        <ele>510</ele>
        <time>2018-02-04T10:16:31Z</time>
      </trkpt>
      <trkpt lat="43.55662" lon="5.84774">
        <ele>511</ele>
        <time>2018-02-04T10:16:38Z</time>
      </trkpt>
      <trkpt lat="43.55641" lon="5.84772">
        <ele>510</ele>
        <time>2018-02-04T10:16:46Z</time>
      </trkpt>
      <trkpt lat="43.55621" lon="5.84771">
        <ele>510</ele>
        <time>2018-02-04T10:16:54Z</time>
      </trkpt>
      <trkpt lat="43.55603" lon="5.8477">
        <ele>510</ele>
        <time>2018-02-04T10:17:01Z</time>
      </trkpt>
      <trkpt lat="43.55585" lon="5.84769">
        <ele>511</ele>
        <time>2018-02-04T10:17:08Z</time>
      </trkpt>
      <trkpt lat="43.55566" lon="5.84769">
        <ele>511</ele>
        <time>2018-02-04T10:17:15Z</time>
      </trkpt>
      <trkpt lat="43.55546" lon="5.8477">
        <ele>511</ele>
        <time>2018-02-04T10:17:23Z</time>
      </trkpt>
      <trkpt lat="43.55526" lon="5.84772">
        <ele>512</ele>
        <time>2018-02-04T10:17:30Z</time>
      </trkpt>
      <trkpt lat="43.55506" lon="5.84772">
        <ele>513</ele>
        <time>2018-02-04T10:17:37Z</time>
      </trkpt>
      <trkpt lat="43.55485" lon="5.84771">
        <ele>513</ele>
        <time>2018-02-04T10:17:44Z</time>
      </trkpt>
      <trkpt lat="43.55467" lon="5.84774">
        <ele>512</ele>
        <time>2018-02-04T10:17:50Z</time>
      </trkpt>
      <trkpt lat="43.55448" lon="5.84775">
        <ele>512</ele>
        <time>2018-02-04T10:17:56Z</time>
      </trkpt>
      <trkpt lat="43.5543" lon="5.84775">
        <ele>512</ele>
        <time>2018-02-04T10:18:01Z</time>
      </trkpt>
      <trkpt lat="43.55407" lon="5.84777">
        <ele>513</ele>
        <time>2018-02-04T10:18:06Z</time>
      </trkpt>
      <trkpt lat="43.55391" lon="5.84787">
        <ele>513</ele>
        <time>2018-02-04T10:18:10Z</time>
      </trkpt>
      <trkpt lat="43.55376" lon="5.84807">
        <ele>513</ele>
        <time>2018-02-04T10:18:16Z</time>
      </trkpt>
      <trkpt lat="43.55362" lon="5.84827">
        <ele>513</ele>
        <time>2018-02-04T10:18:22Z</time>
      </trkpt>
      <trkpt lat="43.55347" lon="5.84847">
        <ele>512</ele>
        <time>2018-02-04T10:18:28Z</time>
      </trkpt>
      <trkpt lat="43.55333" lon="5.84864">
        <ele>515</ele>
        <time>2018-02-04T10:18:34Z</time>
      </trkpt>
      <trkpt lat="43.5532" lon="5.8488">
        <ele>515</ele>
        <time>2018-02-04T10:18:40Z</time>
      </trkpt>
      <trkpt lat="43.55306" lon="5.84896">
        <ele>516</ele>
        <time>2018-02-04T10:18:46Z</time>
      </trkpt>
      <trkpt lat="43.55292" lon="5.84912">
        <ele>516</ele>
        <time>2018-02-04T10:18:52Z</time>
      </trkpt>
      <trkpt lat="43.55286" lon="5.84937">
        <ele>516</ele>
        <time>2018-02-04T10:19:01Z</time>
      </trkpt>
      <trkpt lat="43.55281" lon="5.84963">
        <ele>516</ele>
        <time>2018-02-04T10:19:08Z</time>
      </trkpt>
      <trkpt lat="43.55273" lon="5.84989">
        <ele>517</ele>
        <time>2018-02-04T10:24:24Z</time>
      </trkpt>
      <trkpt lat="43.55266" lon="5.85012">
        <ele>517</ele>
        <time>2018-02-04T10:24:34Z</time>
      </trkpt>
      <trkpt lat="43.55269" lon="5.85038">
        <ele>517</ele>
        <time>2018-02-04T10:24:42Z</time>
      </trkpt>
      <trkpt lat="43.55269" lon="5.85065">
        <ele>518</ele>
        <time>2018-02-04T10:24:49Z</time>
      </trkpt>
      <trkpt lat="43.55267" lon="5.85093">
        <ele>519</ele>
        <time>2018-02-04T10:24:55Z</time>
      </trkpt>
      <trkpt lat="43.55264" lon="5.8512">
        <ele>519</ele>
        <time>2018-02-04T10:25:01Z</time>
      </trkpt>
      <trkpt lat="43.55278" lon="5.85139">
        <ele>519</ele>
        <time>2018-02-04T10:25:09Z</time>
      </trkpt>
      <trkpt lat="43.55274" lon="5.85164">
        <ele>519</ele>
        <time>2018-02-04T10:25:18Z</time>
      </trkpt>
      <trkpt lat="43.55265" lon="5.85186">
        <ele>520</ele>
        <time>2018-02-04T10:25:25Z</time>
      </trkpt>
      <trkpt lat="43.55255" lon="5.85209">
        <ele>521</ele>
        <time>2018-02-04T10:25:32Z</time>
      </trkpt>
      <trkpt lat="43.55254" lon="5.85236">
        <ele>521</ele>
        <time>2018-02-04T10:25:38Z</time>
      </trkpt>
      <trkpt lat="43.5526" lon="5.85263">
        <ele>522</ele>
        <time>2018-02-04T10:25:45Z</time>
      </trkpt>
      <trkpt lat="43.55272" lon="5.85284">
        <ele>523</ele>
        <time>2018-02-04T10:25:52Z</time>
      </trkpt>
      <trkpt lat="43.5528" lon="5.85309">
        <ele>524</ele>
        <time>2018-02-04T10:26:00Z</time>
      </trkpt>
      <trkpt lat="43.55286" lon="5.85335">
        <ele>526</ele>
        <time>2018-02-04T10:26:08Z</time>
      </trkpt>
      <trkpt lat="43.55278" lon="5.85359">
        <ele>526</ele>
        <time>2018-02-04T10:26:16Z</time>
      </trkpt>
      <trkpt lat="43.55277" lon="5.85384">
        <ele>527</ele>
        <time>2018-02-04T10:26:23Z</time>
      </trkpt>
      <trkpt lat="43.55273" lon="5.85409">
        <ele>526</ele>
        <time>2018-02-04T10:26:29Z</time>
      </trkpt>
      <trkpt lat="43.55261" lon="5.85434">
        <ele>527</ele>
        <time>2018-02-04T10:26:35Z</time>
      </trkpt>
      <trkpt lat="43.55254" lon="5.85461">
        <ele>528</ele>
        <time>2018-02-04T10:26:40Z</time>
      </trkpt>
      <trkpt lat="43.55251" lon="5.85486">
        <ele>528</ele>
        <time>2018-02-04T10:27:52Z</time>
      </trkpt>
      <trkpt lat="43.55248" lon="5.85513">
        <ele>526</ele>
        <time>2018-02-04T10:28:00Z</time>
      </trkpt>
      <trkpt lat="43.55244" lon="5.85537">
        <ele>526</ele>
        <time>2018-02-04T10:28:07Z</time>
      </trkpt>
      <trkpt lat="43.55234" lon="5.8556">
        <ele>527</ele>
        <time>2018-02-04T10:28:15Z</time>
      </trkpt>
      <trkpt lat="43.55222" lon="5.8558">
        <ele>526</ele>
        <time>2018-02-04T10:28:21Z</time>
      </trkpt>
      <trkpt lat="43.55211" lon="5.85601">
        <ele>528</ele>
        <time>2018-02-04T10:28:28Z</time>
      </trkpt>
      <trkpt lat="43.55208" lon="5.85627">
        <ele>528</ele>
        <time>2018-02-04T10:28:35Z</time>
      </trkpt>
      <trkpt lat="43.552" lon="5.85654">
        <ele>528</ele>
        <time>2018-02-04T10:28:42Z</time>
      </trkpt>
      <trkpt lat="43.55192" lon="5.85677">
        <ele>530</ele>
        <time>2018-02-04T10:28:49Z</time>
      </trkpt>
      <trkpt lat="43.55184" lon="5.85699">
        <ele>530</ele>
        <time>2018-02-04T10:28:57Z</time>
      </trkpt>
      <trkpt lat="43.55176" lon="5.85724">
        <ele>530</ele>
        <time>2018-02-04T10:29:05Z</time>
      </trkpt>
      <trkpt lat="43.55164" lon="5.85748">
        <ele>529</ele>
        <time>2018-02-04T10:29:12Z</time>
      </trkpt>
      <trkpt lat="43.55156" lon="5.85773">
        <ele>528</ele>
        <time>2018-02-04T10:29:18Z</time>
      </trkpt>
      <trkpt lat="43.55144" lon="5.85793">
        <ele>527</ele>
        <time>2018-02-04T10:29:23Z</time>
      </trkpt>
      <trkpt lat="43.55131" lon="5.85816">
        <ele>527</ele>
        <time>2018-02-04T10:29:28Z</time>
      </trkpt>
      <trkpt lat="43.55122" lon="5.85838">
        <ele>526</ele>
        <time>2018-02-04T10:29:32Z</time>
      </trkpt>
      <trkpt lat="43.5511" lon="5.85863">
        <ele>526</ele>
        <time>2018-02-04T10:29:37Z</time>
      </trkpt>
      <trkpt lat="43.55108" lon="5.85892">
        <ele>526</ele>
        <time>2018-02-04T10:29:42Z</time>
      </trkpt>
      <trkpt lat="43.55104" lon="5.85921">
        <ele>524</ele>
        <time>2018-02-04T10:29:47Z</time>
      </trkpt>
      <trkpt lat="43.55097" lon="5.85949">
        <ele>524</ele>
        <time>2018-02-04T10:29:52Z</time>
      </trkpt>
      <trkpt lat="43.55091" lon="5.85973">
        <ele>523</ele>
        <time>2018-02-04T10:29:56Z</time>
      </trkpt>
      <trkpt lat="43.55085" lon="5.85999">
        <ele>522</ele>
        <time>2018-02-04T10:30:00Z</time>
      </trkpt>
      <trkpt lat="43.55074" lon="5.86023">
        <ele>520</ele>
        <time>2018-02-04T10:30:04Z</time>
      </trkpt>
      <trkpt lat="43.55078" lon="5.86048">
        <ele>520</ele>
        <time>2018-02-04T10:30:08Z</time>
      </trkpt>
      <trkpt lat="43.55083" lon="5.86077">
        <ele>518</ele>
        <time>2018-02-04T10:30:12Z</time>
      </trkpt>
      <trkpt lat="43.55081" lon="5.86102">
        <ele>517</ele>
        <time>2018-02-04T10:30:15Z</time>
      </trkpt>
      <trkpt lat="43.5508" lon="5.86128">
        <ele>516</ele>
        <time>2018-02-04T10:30:18Z</time>
      </trkpt>
      <trkpt lat="43.55087" lon="5.86157">
        <ele>514</ele>
        <time>2018-02-04T10:30:22Z</time>
      </trkpt>
      <trkpt lat="43.55087" lon="5.86185">
        <ele>510</ele>
        <time>2018-02-04T10:30:26Z</time>
      </trkpt>
      <trkpt lat="43.55081" lon="5.86214">
        <ele>512</ele>
        <time>2018-02-04T10:30:30Z</time>
      </trkpt>
      <trkpt lat="43.55073" lon="5.86244">
        <ele>511</ele>
        <time>2018-02-04T10:30:34Z</time>
      </trkpt>
      <trkpt lat="43.55064" lon="5.86273">
        <ele>508</ele>
        <time>2018-02-04T10:30:38Z</time>
      </trkpt>
      <trkpt lat="43.55052" lon="5.86299">
        <ele>507</ele>
        <time>2018-02-04T10:30:42Z</time>
      </trkpt>
      <trkpt lat="43.55044" lon="5.86322">
        <ele>507</ele>
        <time>2018-02-04T10:30:46Z</time>
      </trkpt>
      <trkpt lat="43.55064" lon="5.86316">
        <ele>505</ele>
        <time>2018-02-04T10:30:53Z</time>
      </trkpt>
      <trkpt lat="43.55082" lon="5.863">
        <ele>506</ele>
        <time>2018-02-04T10:30:57Z</time>
      </trkpt>
      <trkpt lat="43.55101" lon="5.86288">
        <ele>501</ele>
        <time>2018-02-04T10:31:01Z</time>
      </trkpt>
      <trkpt lat="43.55121" lon="5.86274">
        <ele>500</ele>
        <time>2018-02-04T10:31:05Z</time>
      </trkpt>
      <trkpt lat="43.5513" lon="5.86245">
        <ele>505</ele>
        <time>2018-02-04T10:31:09Z</time>
      </trkpt>
      <trkpt lat="43.55135" lon="5.86221">
        <ele>505</ele>
        <time>2018-02-04T10:31:12Z</time>
      </trkpt>
      <trkpt lat="43.55143" lon="5.86197">
        <ele>506</ele>
        <time>2018-02-04T10:31:15Z</time>
      </trkpt>
      <trkpt lat="43.55159" lon="5.86178">
        <ele>507</ele>
        <time>2018-02-04T10:31:19Z</time>
      </trkpt>
      <trkpt lat="43.55176" lon="5.86195">
        <ele>503</ele>
        <time>2018-02-04T10:31:23Z</time>
      </trkpt>
      <trkpt lat="43.5519" lon="5.86219">
        <ele>501</ele>
        <time>2018-02-04T10:31:27Z</time>
      </trkpt>
      <trkpt lat="43.55204" lon="5.86239">
        <ele>500</ele>
        <time>2018-02-04T10:31:30Z</time>
      </trkpt>
      <trkpt lat="43.55218" lon="5.86261">
        <ele>494</ele>
        <time>2018-02-04T10:31:33Z</time>
      </trkpt>
      <trkpt lat="43.55231" lon="5.86282">
        <ele>493</ele>
        <time>2018-02-04T10:31:36Z</time>
      </trkpt>
      <trkpt lat="43.55239" lon="5.86305">
        <ele>490</ele>
        <time>2018-02-04T10:31:40Z</time>
      </trkpt>
      <trkpt lat="43.55243" lon="5.8633">
        <ele>487</ele>
        <time>2018-02-04T10:31:44Z</time>
      </trkpt>
      <trkpt lat="43.55224" lon="5.86333">
        <ele>490</ele>
        <time>2018-02-04T10:31:49Z</time>
      </trkpt>
      <trkpt lat="43.55204" lon="5.86343">
        <ele>486</ele>
        <time>2018-02-04T10:31:54Z</time>
      </trkpt>
      <trkpt lat="43.55196" lon="5.86368">
        <ele>485</ele>
        <time>2018-02-04T10:31:59Z</time>
      </trkpt>
      <trkpt lat="43.5519" lon="5.86396">
        <ele>484</ele>
        <time>2018-02-04T10:32:05Z</time>
      </trkpt>
      <trkpt lat="43.55179" lon="5.86418">
        <ele>481</ele>
        <time>2018-02-04T10:32:11Z</time>
      </trkpt>
      <trkpt lat="43.55164" lon="5.86437">
        <ele>483</ele>
        <time>2018-02-04T10:32:17Z</time>
      </trkpt>
      <trkpt lat="43.5515" lon="5.86455">
        <ele>483</ele>
        <time>2018-02-04T10:32:22Z</time>
      </trkpt>
      <trkpt lat="43.55136" lon="5.86474">
        <ele>482</ele>
        <time>2018-02-04T10:32:27Z</time>
      </trkpt>
      <trkpt lat="43.55127" lon="5.86498">
        <ele>482</ele>
        <time>2018-02-04T10:32:33Z</time>
      </trkpt>
      <trkpt lat="43.55114" lon="5.8652">
        <ele>480</ele>
        <time>2018-02-04T10:32:40Z</time>
      </trkpt>
      <trkpt lat="43.551" lon="5.86536">
        <ele>480</ele>
        <time>2018-02-04T10:32:46Z</time>
      </trkpt>
      <trkpt lat="43.55089" lon="5.86559">
        <ele>480</ele>
        <time>2018-02-04T10:32:52Z</time>
      </trkpt>
      <trkpt lat="43.55072" lon="5.86575">
        <ele>484</ele>
        <time>2018-02-04T10:32:58Z</time>
      </trkpt>
      <trkpt lat="43.55057" lon="5.86593">
        <ele>483</ele>
        <time>2018-02-04T10:33:04Z</time>
      </trkpt>
      <trkpt lat="43.5504" lon="5.86611">
        <ele>483</ele>
        <time>2018-02-04T10:33:10Z</time>
      </trkpt>
      <trkpt lat="43.55024" lon="5.86626">
        <ele>483</ele>
        <time>2018-02-04T10:33:16Z</time>
      </trkpt>
      <trkpt lat="43.55007" lon="5.86642">
        <ele>483</ele>
        <time>2018-02-04T10:33:23Z</time>
      </trkpt>
      <trkpt lat="43.5499" lon="5.86658">
        <ele>483</ele>
        <time>2018-02-04T10:33:29Z</time>
      </trkpt>
      <trkpt lat="43.5497" lon="5.86667">
        <ele>479</ele>
        <time>2018-02-04T10:33:35Z</time>
      </trkpt>
      <trkpt lat="43.54951" lon="5.8666">
        <ele>483</ele>
        <time>2018-02-04T10:33:42Z</time>
      </trkpt>
      <trkpt lat="43.54933" lon="5.86646">
        <ele>483</ele>
        <time>2018-02-04T10:33:50Z</time>
      </trkpt>
      <trkpt lat="43.54911" lon="5.86635">
        <ele>482</ele>
        <time>2018-02-04T10:33:55Z</time>
      </trkpt>
      <trkpt lat="43.54893" lon="5.86621">
        <ele>483</ele>
        <time>2018-02-04T10:33:59Z</time>
      </trkpt>
      <trkpt lat="43.54875" lon="5.86607">
        <ele>483</ele>
        <time>2018-02-04T10:34:03Z</time>
      </trkpt>
      <trkpt lat="43.54856" lon="5.86616">
        <ele>483</ele>
        <time>2018-02-04T10:34:07Z</time>
      </trkpt>
      <trkpt lat="43.54848" lon="5.86641">
        <ele>482</ele>
        <time>2018-02-04T10:34:11Z</time>
      </trkpt>
      <trkpt lat="43.54842" lon="5.86665">
        <ele>481</ele>
        <time>2018-02-04T10:34:15Z</time>
      </trkpt>
      <trkpt lat="43.54839" lon="5.86695">
        <ele>479</ele>
        <time>2018-02-04T10:34:20Z</time>
      </trkpt>
      <trkpt lat="43.54833" lon="5.86718">
        <ele>485</ele>
        <time>2018-02-04T10:34:25Z</time>
      </trkpt>
      <trkpt lat="43.54825" lon="5.86741">
        <ele>484</ele>
        <time>2018-02-04T10:34:33Z</time>
      </trkpt>
      <trkpt lat="43.54824" lon="5.86767">
        <ele>486</ele>
        <time>2018-02-04T10:34:42Z</time>
      </trkpt>
      <trkpt lat="43.54821" lon="5.86792">
        <ele>488</ele>
        <time>2018-02-04T10:34:53Z</time>
      </trkpt>
      <trkpt lat="43.54823" lon="5.86818">
        <ele>488</ele>
        <time>2018-02-04T10:35:03Z</time>
      </trkpt>
      <trkpt lat="43.54817" lon="5.86844">
        <ele>488</ele>
        <time>2018-02-04T10:35:12Z</time>
      </trkpt>
      <trkpt lat="43.5481" lon="5.86868">
        <ele>489</ele>
        <time>2018-02-04T10:35:21Z</time>
      </trkpt>
      <trkpt lat="43.548" lon="5.86892">
        <ele>489</ele>
        <time>2018-02-04T10:35:30Z</time>
      </trkpt>
      <trkpt lat="43.54789" lon="5.86914">
        <ele>489</ele>
        <time>2018-02-04T10:35:39Z</time>
      </trkpt>
      <trkpt lat="43.54778" lon="5.86936">
        <ele>488</ele>
        <time>2018-02-04T10:35:47Z</time>
      </trkpt>
      <trkpt lat="43.54765" lon="5.86954">
        <ele>487</ele>
        <time>2018-02-04T10:35:54Z</time>
      </trkpt>
      <trkpt lat="43.54753" lon="5.86975">
        <ele>487</ele>
        <time>2018-02-04T10:36:01Z</time>
      </trkpt>
      <trkpt lat="43.54738" lon="5.86993">
        <ele>489</ele>
        <time>2018-02-04T10:36:07Z</time>
      </trkpt>
      <trkpt lat="43.54722" lon="5.87012">
        <ele>486</ele>
        <time>2018-02-04T10:36:13Z</time>
      </trkpt>
      <trkpt lat="43.54703" lon="5.87026">
        <ele>486</ele>
        <time>2018-02-04T10:36:18Z</time>
      </trkpt>
      <trkpt lat="43.54687" lon="5.87038">
        <ele>486</ele>
        <time>2018-02-04T10:36:22Z</time>
      </trkpt>
      <trkpt lat="43.54669" lon="5.87049">
        <ele>485</ele>
        <time>2018-02-04T10:36:26Z</time>
      </trkpt>
      <trkpt lat="43.54652" lon="5.87063">
        <ele>486</ele>
        <time>2018-02-04T10:36:30Z</time>
      </trkpt>
      <trkpt lat="43.54634" lon="5.87074">
        <ele>487</ele>
        <time>2018-02-04T10:36:34Z</time>
      </trkpt>
      <trkpt lat="43.54611" lon="5.87087">
        <ele>484</ele>
        <time>2018-02-04T10:39:46Z</time>
      </trkpt>
      <trkpt lat="43.54592" lon="5.87087">
        <ele>486</ele>
        <time>2018-02-04T10:40:19Z</time>
      </trkpt>
      <trkpt lat="43.54575" lon="5.87075">
        <ele>491</ele>
        <time>2018-02-04T10:40:32Z</time>
      </trkpt>
      <trkpt lat="43.54564" lon="5.87054">
        <ele>493</ele>
        <time>2018-02-04T10:40:46Z</time>
      </trkpt>
      <trkpt lat="43.5455" lon="5.87038">
        <ele>495</ele>
        <time>2018-02-04T10:40:57Z</time>
      </trkpt>
      <trkpt lat="43.54543" lon="5.87014">
        <ele>496</ele>
        <time>2018-02-04T10:41:10Z</time>
      </trkpt>
      <trkpt lat="43.5454" lon="5.86988">
        <ele>499</ele>
        <time>2018-02-04T10:41:22Z</time>
      </trkpt>
      <trkpt lat="43.54538" lon="5.86961">
        <ele>499</ele>
        <time>2018-02-04T10:41:35Z</time>
      </trkpt>
      <trkpt lat="43.5454" lon="5.86936">
        <ele>500</ele>
        <time>2018-02-04T10:41:48Z</time>
      </trkpt>
      <trkpt lat="43.54545" lon="5.86911">
        <ele>502</ele>
        <time>2018-02-04T10:42:02Z</time>
      </trkpt>
      <trkpt lat="43.54556" lon="5.86891">
        <ele>502</ele>
        <time>2018-02-04T10:42:16Z</time>
      </trkpt>
      <trkpt lat="43.5457" lon="5.86874">
        <ele>503</ele>
        <time>2018-02-04T10:42:27Z</time>
      </trkpt>
      <trkpt lat="43.54575" lon="5.8685">
        <ele>503</ele>
        <time>2018-02-04T10:42:41Z</time>
      </trkpt>
      <trkpt lat="43.54571" lon="5.86824">
        <ele>504</ele>
        <time>2018-02-04T10:42:54Z</time>
      </trkpt>
      <trkpt lat="43.54585" lon="5.86808">
        <ele>504</ele>
        <time>2018-02-04T10:43:06Z</time>
      </trkpt>
      <trkpt lat="43.54598" lon="5.86788">
        <ele>505</ele>
        <time>2018-02-04T10:43:16Z</time>
      </trkpt>
      <trkpt lat="43.54608" lon="5.86767">
        <ele>505</ele>
        <time>2018-02-04T10:43:25Z</time>
      </trkpt>
      <trkpt lat="43.54618" lon="5.86744">
        <ele>506</ele>
        <time>2018-02-04T10:43:34Z</time>
      </trkpt>
      <trkpt lat="43.54629" lon="5.86724">
        <ele>506</ele>
        <time>2018-02-04T10:43:42Z</time>
      </trkpt>
      <trkpt lat="43.54641" lon="5.86701">
        <ele>506</ele>
        <time>2018-02-04T10:43:51Z</time>
      </trkpt>
      <trkpt lat="43.54651" lon="5.86678">
        <ele>507</ele>
        <time>2018-02-04T10:43:59Z</time>
      </trkpt>
      <trkpt lat="43.54661" lon="5.86657">
        <ele>507</ele>
        <time>2018-02-04T10:44:07Z</time>
      </trkpt>
      <trkpt lat="43.54667" lon="5.86631">
        <ele>505</ele>
        <time>2018-02-04T10:44:15Z</time>
      </trkpt>
      <trkpt lat="43.5467" lon="5.86606">
        <ele>505</ele>
        <time>2018-02-04T10:44:23Z</time>
      </trkpt>
      <trkpt lat="43.5468" lon="5.86585">
        <ele>506</ele>
        <time>2018-02-04T10:44:30Z</time>
      </trkpt>
      <trkpt lat="43.5469" lon="5.8656">
        <ele>505</ele>
        <time>2018-02-04T10:44:37Z</time>
      </trkpt>
      <trkpt lat="43.54697" lon="5.86538">
        <ele>504</ele>
        <time>2018-02-04T10:44:43Z</time>
      </trkpt>
      <trkpt lat="43.54693" lon="5.86513">
        <ele>505</ele>
        <time>2018-02-04T10:44:50Z</time>
      </trkpt>
      <trkpt lat="43.54681" lon="5.86492">
        <ele>507</ele>
        <time>2018-02-04T10:45:01Z</time>
      </trkpt>
      <trkpt lat="43.54662" lon="5.86493">
        <ele>508</ele>
        <time>2018-02-04T10:45:09Z</time>
      </trkpt>
      <trkpt lat="43.54648" lon="5.86478">
        <ele>509</ele>
        <time>2018-02-04T10:45:16Z</time>
      </trkpt>
      <trkpt lat="43.54634" lon="5.86459">
        <ele>509</ele>
        <time>2018-02-04T10:45:24Z</time>
      </trkpt>
      <trkpt lat="43.54618" lon="5.86445">
        <ele>509</ele>
        <time>2018-02-04T10:45:33Z</time>
      </trkpt>
      <trkpt lat="43.54605" lon="5.86464">
        <ele>509</ele>
        <time>2018-02-04T10:45:41Z</time>
      </trkpt>
      <trkpt lat="43.54593" lon="5.86485">
        <ele>509</ele>
        <time>2018-02-04T10:45:49Z</time>
      </trkpt>
      <trkpt lat="43.54583" lon="5.86506">
        <ele>510</ele>
        <time>2018-02-04T10:45:56Z</time>
      </trkpt>
      <trkpt lat="43.54573" lon="5.86531">
        <ele>509</ele>
        <time>2018-02-04T10:46:03Z</time>
      </trkpt>
      <trkpt lat="43.54561" lon="5.86554">
        <ele>509</ele>
        <time>2018-02-04T10:46:10Z</time>
      </trkpt>
      <trkpt lat="43.5455" lon="5.86575">
        <ele>509</ele>
        <time>2018-02-04T10:46:16Z</time>
      </trkpt>
      <trkpt lat="43.54539" lon="5.86598">
        <ele>508</ele>
        <time>2018-02-04T10:46:23Z</time>
      </trkpt>
      <trkpt lat="43.54528" lon="5.86617">
        <ele>508</ele>
        <time>2018-02-04T10:46:29Z</time>
      </trkpt>
      <trkpt lat="43.54515" lon="5.86635">
        <ele>507</ele>
        <time>2018-02-04T10:46:35Z</time>
      </trkpt>
      <trkpt lat="43.54505" lon="5.86659">
        <ele>507</ele>
        <time>2018-02-04T10:46:41Z</time>
      </trkpt>
      <trkpt lat="43.54494" lon="5.86684">
        <ele>506</ele>
        <time>2018-02-04T10:46:47Z</time>
      </trkpt>
      <trkpt lat="43.54482" lon="5.86707">
        <ele>506</ele>
        <time>2018-02-04T10:46:53Z</time>
      </trkpt>
      <trkpt lat="43.54472" lon="5.8673">
        <ele>506</ele>
        <time>2018-02-04T10:46:59Z</time>
      </trkpt>
      <trkpt lat="43.54461" lon="5.86752">
        <ele>505</ele>
        <time>2018-02-04T10:47:05Z</time>
      </trkpt>
      <trkpt lat="43.54449" lon="5.86774">
        <ele>504</ele>
        <time>2018-02-04T10:47:11Z</time>
      </trkpt>
      <trkpt lat="43.54437" lon="5.86794">
        <ele>504</ele>
        <time>2018-02-04T10:47:17Z</time>
      </trkpt>
      <trkpt lat="43.54427" lon="5.86816">
        <ele>504</ele>
        <time>2018-02-04T10:47:23Z</time>
      </trkpt>
      <trkpt lat="43.54413" lon="5.86835">
        <ele>503</ele>
        <time>2018-02-04T10:47:29Z</time>
      </trkpt>
      <trkpt lat="43.54395" lon="5.8685">
        <ele>503</ele>
        <time>2018-02-04T10:47:36Z</time>
      </trkpt>
      <trkpt lat="43.54378" lon="5.86864">
        <ele>503</ele>
        <time>2018-02-04T10:47:42Z</time>
      </trkpt>
      <trkpt lat="43.54359" lon="5.86866">
        <ele>503</ele>
        <time>2018-02-04T10:47:49Z</time>
      </trkpt>
      <trkpt lat="43.54341" lon="5.86858">
        <ele>503</ele>
        <time>2018-02-04T10:47:55Z</time>
      </trkpt>
      <trkpt lat="43.54326" lon="5.86872">
        <ele>503</ele>
        <time>2018-02-04T10:48:02Z</time>
      </trkpt>
      <trkpt lat="43.54309" lon="5.86884">
        <ele>502</ele>
        <time>2018-02-04T10:48:09Z</time>
      </trkpt>
      <trkpt lat="43.54291" lon="5.86877">
        <ele>502</ele>
        <time>2018-02-04T10:48:15Z</time>
      </trkpt>
      <trkpt lat="43.54273" lon="5.86874">
        <ele>502</ele>
        <time>2018-02-04T10:48:21Z</time>
      </trkpt>
      <trkpt lat="43.54252" lon="5.86879">
        <ele>501</ele>
        <time>2018-02-04T10:48:27Z</time>
      </trkpt>
      <trkpt lat="43.54237" lon="5.86897">
        <ele>500</ele>
        <time>2018-02-04T10:48:34Z</time>
      </trkpt>
      <trkpt lat="43.5422" lon="5.8691">
        <ele>500</ele>
        <time>2018-02-04T10:48:41Z</time>
      </trkpt>
      <trkpt lat="43.54207" lon="5.86912">
        <ele>500</ele>
        <time>2018-02-04T10:53:29Z</time>
      </trkpt>
      <trkpt lat="43.54195" lon="5.86933">
        <ele>501</ele>
        <time>2018-02-04T11:03:23Z</time>
      </trkpt>
      <trkpt lat="43.54181" lon="5.86953">
        <ele>501</ele>
        <time>2018-02-04T11:03:32Z</time>
      </trkpt>
      <trkpt lat="43.54167" lon="5.8697">
        <ele>501</ele>
        <time>2018-02-04T11:03:39Z</time>
      </trkpt>
      <trkpt lat="43.54154" lon="5.86989">
        <ele>501</ele>
        <time>2018-02-04T11:03:46Z</time>
      </trkpt>
      <trkpt lat="43.5414" lon="5.87008">
        <ele>502</ele>
        <time>2018-02-04T11:03:53Z</time>
      </trkpt>
      <trkpt lat="43.54126" lon="5.87028">
        <ele>502</ele>
        <time>2018-02-04T11:04:00Z</time>
      </trkpt>
      <trkpt lat="43.54111" lon="5.87047">
        <ele>502</ele>
        <time>2018-02-04T11:04:06Z</time>
      </trkpt>
      <trkpt lat="43.54097" lon="5.87066">
        <ele>502</ele>
        <time>2018-02-04T11:04:11Z</time>
      </trkpt>
      <trkpt lat="43.54083" lon="5.87085">
        <ele>502</ele>
        <time>2018-02-04T11:04:16Z</time>
      </trkpt>
      <trkpt lat="43.54069" lon="5.87107">
        <ele>502</ele>
        <time>2018-02-04T11:04:21Z</time>
      </trkpt>
      <trkpt lat="43.54058" lon="5.87129">
        <ele>502</ele>
        <time>2018-02-04T11:04:26Z</time>
      </trkpt>
      <trkpt lat="43.54048" lon="5.87152">
        <ele>502</ele>
        <time>2018-02-04T11:04:31Z</time>
      </trkpt>
      <trkpt lat="43.54038" lon="5.87174">
        <ele>502</ele>
        <time>2018-02-04T11:04:36Z</time>
      </trkpt>
      <trkpt lat="43.54028" lon="5.87197">
        <ele>502</ele>
        <time>2018-02-04T11:04:41Z</time>
      </trkpt>
      <trkpt lat="43.5402" lon="5.87221">
        <ele>503</ele>
        <time>2018-02-04T11:04:46Z</time>
      </trkpt>
      <trkpt lat="43.54012" lon="5.87243">
        <ele>503</ele>
        <time>2018-02-04T11:04:51Z</time>
      </trkpt>
      <trkpt lat="43.54004" lon="5.8727">
        <ele>503</ele>
        <time>2018-02-04T11:04:57Z</time>
      </trkpt>
      <trkpt lat="43.53995" lon="5.87295">
        <ele>502</ele>
        <time>2018-02-04T11:05:03Z</time>
      </trkpt>
      <trkpt lat="43.53981" lon="5.87318">
        <ele>502</ele>
        <time>2018-02-04T11:05:09Z</time>
      </trkpt>
      <trkpt lat="43.53966" lon="5.87337">
        <ele>500</ele>
        <time>2018-02-04T11:05:14Z</time>
      </trkpt>
      <trkpt lat="43.53949" lon="5.87356">
        <ele>500</ele>
        <time>2018-02-04T11:05:19Z</time>
      </trkpt>
      <trkpt lat="43.5393" lon="5.87368">
        <ele>500</ele>
        <time>2018-02-04T11:05:25Z</time>
      </trkpt>
      <trkpt lat="43.53912" lon="5.87368">
        <ele>502</ele>
        <time>2018-02-04T11:05:30Z</time>
      </trkpt>
      <trkpt lat="43.53892" lon="5.87367">
        <ele>502</ele>
        <time>2018-02-04T11:05:35Z</time>
      </trkpt>
      <trkpt lat="43.53871" lon="5.87365">
        <ele>503</ele>
        <time>2018-02-04T11:05:40Z</time>
      </trkpt>
      <trkpt lat="43.53851" lon="5.87362">
        <ele>503</ele>
        <time>2018-02-04T11:05:45Z</time>
      </trkpt>
      <trkpt lat="43.53831" lon="5.87355">
        <ele>506</ele>
        <time>2018-02-04T11:05:50Z</time>
      </trkpt>
      <trkpt lat="43.53813" lon="5.87343">
        <ele>507</ele>
        <time>2018-02-04T11:05:55Z</time>
      </trkpt>
      <trkpt lat="43.53797" lon="5.87327">
        <ele>507</ele>
        <time>2018-02-04T11:06:00Z</time>
      </trkpt>
      <trkpt lat="43.53783" lon="5.87311">
        <ele>507</ele>
        <time>2018-02-04T11:06:05Z</time>
      </trkpt>
      <trkpt lat="43.53768" lon="5.87297">
        <ele>507</ele>
        <time>2018-02-04T11:06:12Z</time>
      </trkpt>
      <trkpt lat="43.5375" lon="5.87286">
        <ele>508</ele>
        <time>2018-02-04T11:06:19Z</time>
      </trkpt>
      <trkpt lat="43.53732" lon="5.87275">
        <ele>510</ele>
        <time>2018-02-04T11:06:26Z</time>
      </trkpt>
      <trkpt lat="43.53712" lon="5.8727">
        <ele>511</ele>
        <time>2018-02-04T11:06:34Z</time>
      </trkpt>
      <trkpt lat="43.53694" lon="5.8727">
        <ele>512</ele>
        <time>2018-02-04T11:06:42Z</time>
      </trkpt>
      <trkpt lat="43.53674" lon="5.87276">
        <ele>513</ele>
        <time>2018-02-04T11:06:51Z</time>
      </trkpt>
      <trkpt lat="43.53658" lon="5.87285">
        <ele>516</ele>
        <time>2018-02-04T11:07:01Z</time>
      </trkpt>
      <trkpt lat="43.53639" lon="5.87293">
        <ele>516</ele>
        <time>2018-02-04T11:07:09Z</time>
      </trkpt>
      <trkpt lat="43.5362" lon="5.87293">
        <ele>517</ele>
        <time>2018-02-04T11:07:17Z</time>
      </trkpt>
      <trkpt lat="43.53601" lon="5.87289">
        <ele>517</ele>
        <time>2018-02-04T11:07:24Z</time>
      </trkpt>
      <trkpt lat="43.5358" lon="5.87284">
        <ele>518</ele>
        <time>2018-02-04T11:07:31Z</time>
      </trkpt>
      <trkpt lat="43.53559" lon="5.87282">
        <ele>518</ele>
        <time>2018-02-04T11:07:37Z</time>
      </trkpt>
      <trkpt lat="43.5354" lon="5.87275">
        <ele>518</ele>
        <time>2018-02-04T11:07:43Z</time>
      </trkpt>
      <trkpt lat="43.53528" lon="5.87255">
        <ele>518</ele>
        <time>2018-02-04T11:07:49Z</time>
      </trkpt>
      <trkpt lat="43.53529" lon="5.87227">
        <ele>516</ele>
        <time>2018-02-04T11:07:55Z</time>
      </trkpt>
      <trkpt lat="43.53528" lon="5.872">
        <ele>516</ele>
        <time>2018-02-04T11:08:00Z</time>
      </trkpt>
      <trkpt lat="43.53523" lon="5.87175">
        <ele>515</ele>
        <time>2018-02-04T11:08:07Z</time>
      </trkpt>
      <trkpt lat="43.53516" lon="5.87149">
        <ele>514</ele>
        <time>2018-02-04T11:08:15Z</time>
      </trkpt>
      <trkpt lat="43.53502" lon="5.8713">
        <ele>514</ele>
        <time>2018-02-04T11:08:21Z</time>
      </trkpt>
      <trkpt lat="43.53479" lon="5.87129">
        <ele>512</ele>
        <time>2018-02-04T11:08:26Z</time>
      </trkpt>
      <trkpt lat="43.53456" lon="5.87119">
        <ele>511</ele>
        <time>2018-02-04T11:08:30Z</time>
      </trkpt>
      <trkpt lat="43.53434" lon="5.87108">
        <ele>510</ele>
        <time>2018-02-04T11:08:34Z</time>
      </trkpt>
      <trkpt lat="43.5341" lon="5.87109">
        <ele>508</ele>
        <time>2018-02-04T11:08:38Z</time>
      </trkpt>
      <trkpt lat="43.53387" lon="5.87112">
        <ele>507</ele>
        <time>2018-02-04T11:08:42Z</time>
      </trkpt>
      <trkpt lat="43.53365" lon="5.87121">
        <ele>507</ele>
        <time>2018-02-04T11:08:46Z</time>
      </trkpt>
      <trkpt lat="43.53347" lon="5.87126">
        <ele>506</ele>
        <time>2018-02-04T11:08:49Z</time>
      </trkpt>
      <trkpt lat="43.53328" lon="5.87131">
        <ele>504</ele>
        <time>2018-02-04T11:08:52Z</time>
      </trkpt>
      <trkpt lat="43.5331" lon="5.87134">
        <ele>503</ele>
        <time>2018-02-04T11:08:55Z</time>
      </trkpt>
      <trkpt lat="43.53287" lon="5.8714">
        <ele>503</ele>
        <time>2018-02-04T11:08:59Z</time>
      </trkpt>
      <trkpt lat="43.53266" lon="5.87149">
        <ele>502</ele>
        <time>2018-02-04T11:09:03Z</time>
      </trkpt>
      <trkpt lat="43.53246" lon="5.87166">
        <ele>501</ele>
        <time>2018-02-04T11:09:07Z</time>
      </trkpt>
      <trkpt lat="43.53226" lon="5.87183">
        <ele>501</ele>
        <time>2018-02-04T11:09:11Z</time>
      </trkpt>
      <trkpt lat="43.53209" lon="5.87203">
        <ele>501</ele>
        <time>2018-02-04T11:09:15Z</time>
      </trkpt>
      <trkpt lat="43.5319" lon="5.8722">
        <ele>501</ele>
        <time>2018-02-04T11:09:19Z</time>
      </trkpt>
      <trkpt lat="43.53174" lon="5.87237">
        <ele>501</ele>
        <time>2018-02-04T11:09:23Z</time>
      </trkpt>
      <trkpt lat="43.5316" lon="5.87253">
        <ele>500</ele>
        <time>2018-02-04T11:09:27Z</time>
      </trkpt>
      <trkpt lat="43.53145" lon="5.87269">
        <ele>500</ele>
        <time>2018-02-04T11:09:43Z</time>
      </trkpt>
      <trkpt lat="43.53132" lon="5.87286">
        <ele>499</ele>
        <time>2018-02-04T11:10:17Z</time>
      </trkpt>
      <trkpt lat="43.53112" lon="5.87288">
        <ele>499</ele>
        <time>2018-02-04T11:10:37Z</time>
      </trkpt>
      <trkpt lat="43.531" lon="5.87308">
        <ele>499</ele>
        <time>2018-02-04T11:10:46Z</time>
      </trkpt>
      <trkpt lat="43.53083" lon="5.87325">
        <ele>498</ele>
        <time>2018-02-04T11:12:14Z</time>
      </trkpt>
      <trkpt lat="43.53076" lon="5.87348">
        <ele>498</ele>
        <time>2018-02-04T11:12:28Z</time>
      </trkpt>
      <trkpt lat="43.5307" lon="5.87371">
        <ele>498</ele>
        <time>2018-02-04T11:12:40Z</time>
      </trkpt>
      <trkpt lat="43.53067" lon="5.87396">
        <ele>497</ele>
        <time>2018-02-04T11:12:49Z</time>
      </trkpt>
      <trkpt lat="43.53065" lon="5.87424">
        <ele>497</ele>
        <time>2018-02-04T11:12:56Z</time>
      </trkpt>
      <trkpt lat="43.53066" lon="5.8745">
        <ele>497</ele>
        <time>2018-02-04T11:13:02Z</time>
      </trkpt>
      <trkpt lat="43.5307" lon="5.87477">
        <ele>496</ele>
        <time>2018-02-04T11:13:08Z</time>
      </trkpt>
      <trkpt lat="43.53074" lon="5.87505">
        <ele>495</ele>
        <time>2018-02-04T11:13:14Z</time>
      </trkpt>
      <trkpt lat="43.53077" lon="5.87533">
        <ele>496</ele>
        <time>2018-02-04T11:13:20Z</time>
      </trkpt>
      <trkpt lat="43.53078" lon="5.87559">
        <ele>496</ele>
        <time>2018-02-04T11:13:26Z</time>
      </trkpt>
      <trkpt lat="43.53081" lon="5.87583">
        <ele>496</ele>
        <time>2018-02-04T11:13:32Z</time>
      </trkpt>
      <trkpt lat="43.53084" lon="5.87612">
        <ele>493</ele>
        <time>2018-02-04T11:13:39Z</time>
      </trkpt>
      <trkpt lat="43.53088" lon="5.87639">
        <ele>493</ele>
        <time>2018-02-04T11:13:46Z</time>
      </trkpt>
      <trkpt lat="43.53089" lon="5.87667">
        <ele>494</ele>
        <time>2018-02-04T11:13:53Z</time>
      </trkpt>
      <trkpt lat="43.53091" lon="5.87694">
        <ele>492</ele>
        <time>2018-02-04T11:13:59Z</time>
      </trkpt>
      <trkpt lat="43.53087" lon="5.87722">
        <ele>492</ele>
        <time>2018-02-04T11:14:05Z</time>
      </trkpt>
      <trkpt lat="43.53085" lon="5.87747">
        <ele>493</ele>
        <time>2018-02-04T11:14:10Z</time>
      </trkpt>
      <trkpt lat="43.53082" lon="5.87775">
        <ele>493</ele>
        <time>2018-02-04T11:14:15Z</time>
      </trkpt>
      <trkpt lat="43.53074" lon="5.87804">
        <ele>492</ele>
        <time>2018-02-04T11:14:20Z</time>
      </trkpt>
      <trkpt lat="43.53058" lon="5.87823">
        <ele>491</ele>
        <time>2018-02-04T11:14:25Z</time>
      </trkpt>
      <trkpt lat="43.53042" lon="5.87838">
        <ele>488</ele>
        <time>2018-02-04T11:14:30Z</time>
      </trkpt>
      <trkpt lat="43.53028" lon="5.87862">
        <ele>488</ele>
        <time>2018-02-04T11:14:35Z</time>
      </trkpt>
      <trkpt lat="43.53013" lon="5.8788">
        <ele>487</ele>
        <time>2018-02-04T11:14:39Z</time>
      </trkpt>
      <trkpt lat="43.52996" lon="5.87899">
        <ele>488</ele>
        <time>2018-02-04T11:14:43Z</time>
      </trkpt>
      <trkpt lat="43.52981" lon="5.87919">
        <ele>484</ele>
        <time>2018-02-04T11:14:50Z</time>
      </trkpt>
      <trkpt lat="43.52967" lon="5.87935">
        <ele>483</ele>
        <time>2018-02-04T11:14:55Z</time>
      </trkpt>
      <trkpt lat="43.52951" lon="5.87953">
        <ele>483</ele>
        <time>2018-02-04T11:14:59Z</time>
      </trkpt>
      <trkpt lat="43.52936" lon="5.8797">
        <ele>482</ele>
        <time>2018-02-04T11:15:03Z</time>
      </trkpt>
      <trkpt lat="43.52922" lon="5.8799">
        <ele>482</ele>
        <time>2018-02-04T11:15:07Z</time>
      </trkpt>
      <trkpt lat="43.52904" lon="5.88011">
        <ele>481</ele>
        <time>2018-02-04T11:15:11Z</time>
      </trkpt>
      <trkpt lat="43.52891" lon="5.88028">
        <ele>480</ele>
        <time>2018-02-04T11:15:14Z</time>
      </trkpt>
      <trkpt lat="43.52875" lon="5.88051">
        <ele>479</ele>
        <time>2018-02-04T11:15:18Z</time>
      </trkpt>
      <trkpt lat="43.52858" lon="5.88072">
        <ele>479</ele>
        <time>2018-02-04T11:15:22Z</time>
      </trkpt>
      <trkpt lat="43.52843" lon="5.88096">
        <ele>478</ele>
        <time>2018-02-04T11:15:26Z</time>
      </trkpt>
      <trkpt lat="43.52835" lon="5.88125">
        <ele>476</ele>
        <time>2018-02-04T11:15:30Z</time>
      </trkpt>
      <trkpt lat="43.52836" lon="5.88154">
        <ele>477</ele>
        <time>2018-02-04T11:15:34Z</time>
      </trkpt>
      <trkpt lat="43.52837" lon="5.88183">
        <ele>476</ele>
        <time>2018-02-04T11:15:38Z</time>
      </trkpt>
      <trkpt lat="43.52839" lon="5.8821">
        <ele>475</ele>
        <time>2018-02-04T11:15:42Z</time>
      </trkpt>
      <trkpt lat="43.5283" lon="5.88232">
        <ele>478</ele>
        <time>2018-02-04T11:15:49Z</time>
      </trkpt>
      <trkpt lat="43.52813" lon="5.88246">
        <ele>478</ele>
        <time>2018-02-04T11:15:54Z</time>
      </trkpt>
      <trkpt lat="43.52801" lon="5.88264">
        <ele>476</ele>
        <time>2018-02-04T11:15:59Z</time>
      </trkpt>
      <trkpt lat="43.52784" lon="5.88282">
        <ele>476</ele>
        <time>2018-02-04T11:16:05Z</time>
      </trkpt>
      <trkpt lat="43.52771" lon="5.88304">
        <ele>476</ele>
        <time>2018-02-04T11:16:10Z</time>
      </trkpt>
      <trkpt lat="43.52758" lon="5.88323">
        <ele>475</ele>
        <time>2018-02-04T11:16:14Z</time>
      </trkpt>
      <trkpt lat="43.52745" lon="5.88342">
        <ele>474</ele>
        <time>2018-02-04T11:16:18Z</time>
      </trkpt>
      <trkpt lat="43.52732" lon="5.88361">
        <ele>473</ele>
        <time>2018-02-04T11:16:22Z</time>
      </trkpt>
      <trkpt lat="43.52717" lon="5.88379">
        <ele>472</ele>
        <time>2018-02-04T11:16:26Z</time>
      </trkpt>
      <trkpt lat="43.52696" lon="5.88392">
        <ele>472</ele>
        <time>2018-02-04T11:16:30Z</time>
      </trkpt>
      <trkpt lat="43.52675" lon="5.88405">
        <ele>471</ele>
        <time>2018-02-04T11:16:34Z</time>
      </trkpt>
      <trkpt lat="43.52657" lon="5.88414">
        <ele>470</ele>
        <time>2018-02-04T11:16:37Z</time>
      </trkpt>
      <trkpt lat="43.52638" lon="5.8842">
        <ele>469</ele>
        <time>2018-02-04T11:16:40Z</time>
      </trkpt>
      <trkpt lat="43.52621" lon="5.88427">
        <ele>469</ele>
        <time>2018-02-04T11:16:43Z</time>
      </trkpt>
      <trkpt lat="43.526" lon="5.88438">
        <ele>468</ele>
        <time>2018-02-04T11:16:47Z</time>
      </trkpt>
      <trkpt lat="43.52578" lon="5.88449">
        <ele>466</ele>
        <time>2018-02-04T11:16:51Z</time>
      </trkpt>
      <trkpt lat="43.52561" lon="5.88468">
        <ele>465</ele>
        <time>2018-02-04T11:16:55Z</time>
      </trkpt>
      <trkpt lat="43.52541" lon="5.88477">
        <ele>465</ele>
        <time>2018-02-04T11:16:59Z</time>
      </trkpt>
      <trkpt lat="43.52521" lon="5.88479">
        <ele>465</ele>
        <time>2018-02-04T11:17:03Z</time>
      </trkpt>
      <trkpt lat="43.52501" lon="5.88483">
        <ele>464</ele>
        <time>2018-02-04T11:17:07Z</time>
      </trkpt>
      <trkpt lat="43.52479" lon="5.88489">
        <ele>463</ele>
        <time>2018-02-04T11:17:11Z</time>
      </trkpt>
      <trkpt lat="43.52459" lon="5.88492">
        <ele>463</ele>
        <time>2018-02-04T11:17:15Z</time>
      </trkpt>
      <trkpt lat="43.5244" lon="5.88497">
        <ele>463</ele>
        <time>2018-02-04T11:17:19Z</time>
      </trkpt>
      <trkpt lat="43.52419" lon="5.88499">
        <ele>464</ele>
        <time>2018-02-04T11:17:23Z</time>
      </trkpt>
      <trkpt lat="43.52398" lon="5.88501">
        <ele>462</ele>
        <time>2018-02-04T11:17:27Z</time>
      </trkpt>
      <trkpt lat="43.52379" lon="5.88509">
        <ele>461</ele>
        <time>2018-02-04T11:17:31Z</time>
      </trkpt>
      <trkpt lat="43.52368" lon="5.88532">
        <ele>460</ele>
        <time>2018-02-04T11:17:35Z</time>
      </trkpt>
      <trkpt lat="43.52353" lon="5.88556">
        <ele>459</ele>
        <time>2018-02-04T11:17:39Z</time>
      </trkpt>
      <trkpt lat="43.52337" lon="5.88578">
        <ele>457</ele>
        <time>2018-02-04T11:17:43Z</time>
      </trkpt>
      <trkpt lat="43.52324" lon="5.88598">
        <ele>454</ele>
        <time>2018-02-04T11:17:48Z</time>
      </trkpt>
      <trkpt lat="43.52304" lon="5.88613">
        <ele>453</ele>
        <time>2018-02-04T11:17:53Z</time>
      </trkpt>
      <trkpt lat="43.52289" lon="5.88634">
        <ele>452</ele>
        <time>2018-02-04T11:17:57Z</time>
      </trkpt>
      <trkpt lat="43.5227" lon="5.88639">
        <ele>451</ele>
        <time>2018-02-04T11:18:02Z</time>
      </trkpt>
      <trkpt lat="43.52251" lon="5.88638">
        <ele>451</ele>
        <time>2018-02-04T11:18:06Z</time>
      </trkpt>
      <trkpt lat="43.52228" lon="5.88635">
        <ele>445</ele>
        <time>2018-02-04T11:18:10Z</time>
      </trkpt>
      <trkpt lat="43.52208" lon="5.88632">
        <ele>444</ele>
        <time>2018-02-04T11:18:13Z</time>
      </trkpt>
      <trkpt lat="43.52189" lon="5.88627">
        <ele>443</ele>
        <time>2018-02-04T11:18:16Z</time>
      </trkpt>
      <trkpt lat="43.52169" lon="5.88626">
        <ele>443</ele>
        <time>2018-02-04T11:18:19Z</time>
      </trkpt>
      <trkpt lat="43.5215" lon="5.88626">
        <ele>435</ele>
        <time>2018-02-04T11:18:22Z</time>
      </trkpt>
      <trkpt lat="43.52129" lon="5.88627">
        <ele>434</ele>
        <time>2018-02-04T11:18:26Z</time>
      </trkpt>
      <trkpt lat="43.52108" lon="5.88628">
        <ele>433</ele>
        <time>2018-02-04T11:18:30Z</time>
      </trkpt>
      <trkpt lat="43.52086" lon="5.88629">
        <ele>432</ele>
        <time>2018-02-04T11:18:34Z</time>
      </trkpt>
      <trkpt lat="43.52065" lon="5.88628">
        <ele>424</ele>
        <time>2018-02-04T11:18:39Z</time>
      </trkpt>
      <trkpt lat="43.52045" lon="5.8862">
        <ele>423</ele>
        <time>2018-02-04T11:18:43Z</time>
      </trkpt>
      <trkpt lat="43.52027" lon="5.88618">
        <ele>422</ele>
        <time>2018-02-04T11:18:46Z</time>
      </trkpt>
      <trkpt lat="43.52006" lon="5.88622">
        <ele>421</ele>
        <time>2018-02-04T11:18:50Z</time>
      </trkpt>
      <trkpt lat="43.51985" lon="5.88634">
        <ele>415</ele>
        <time>2018-02-04T11:18:55Z</time>
      </trkpt>
      <trkpt lat="43.51966" lon="5.88636">
        <ele>414</ele>
        <time>2018-02-04T11:18:59Z</time>
      </trkpt>
      <trkpt lat="43.51945" lon="5.88626">
        <ele>413</ele>
        <time>2018-02-04T11:19:03Z</time>
      </trkpt>
      <trkpt lat="43.51926" lon="5.88611">
        <ele>413</ele>
        <time>2018-02-04T11:19:07Z</time>
      </trkpt>
      <trkpt lat="43.51909" lon="5.88602">
        <ele>409</ele>
        <time>2018-02-04T11:19:10Z</time>
      </trkpt>
      <trkpt lat="43.51892" lon="5.88591">
        <ele>408</ele>
        <time>2018-02-04T11:19:13Z</time>
      </trkpt>
      <trkpt lat="43.51874" lon="5.88583">
        <ele>406</ele>
        <time>2018-02-04T11:19:16Z</time>
      </trkpt>
      <trkpt lat="43.51854" lon="5.88577">
        <ele>405</ele>
        <time>2018-02-04T11:19:19Z</time>
      </trkpt>
      <trkpt lat="43.51835" lon="5.88568">
        <ele>404</ele>
        <time>2018-02-04T11:19:22Z</time>
      </trkpt>
      <trkpt lat="43.51818" lon="5.88556">
        <ele>401</ele>
        <time>2018-02-04T11:19:25Z</time>
      </trkpt>
      <trkpt lat="43.51795" lon="5.8855">
        <ele>400</ele>
        <time>2018-02-04T11:19:29Z</time>
      </trkpt>
      <trkpt lat="43.51775" lon="5.88561">
        <ele>399</ele>
        <time>2018-02-04T11:19:33Z</time>
      </trkpt>
      <trkpt lat="43.51757" lon="5.88563">
        <ele>399</ele>
        <time>2018-02-04T11:19:37Z</time>
      </trkpt>
      <trkpt lat="43.51739" lon="5.88559">
        <ele>396</ele>
        <time>2018-02-04T11:19:41Z</time>
      </trkpt>
      <trkpt lat="43.5172" lon="5.88555">
        <ele>395</ele>
        <time>2018-02-04T11:19:45Z</time>
      </trkpt>
      <trkpt lat="43.51701" lon="5.88551">
        <ele>395</ele>
        <time>2018-02-04T11:19:48Z</time>
      </trkpt>
      <trkpt lat="43.51678" lon="5.88546">
        <ele>394</ele>
        <time>2018-02-04T11:19:52Z</time>
      </trkpt>
      <trkpt lat="43.51654" lon="5.88542">
        <ele>390</ele>
        <time>2018-02-04T11:19:56Z</time>
      </trkpt>
      <trkpt lat="43.51632" lon="5.88546">
        <ele>390</ele>
        <time>2018-02-04T11:20:00Z</time>
      </trkpt>
      <trkpt lat="43.51609" lon="5.88556">
        <ele>389</ele>
        <time>2018-02-04T11:20:04Z</time>
      </trkpt>
      <trkpt lat="43.51588" lon="5.88571">
        <ele>388</ele>
        <time>2018-02-04T11:20:08Z</time>
      </trkpt>
      <trkpt lat="43.51571" lon="5.88588">
        <ele>386</ele>
        <time>2018-02-04T11:20:12Z</time>
      </trkpt>
      <trkpt lat="43.5155" lon="5.88595">
        <ele>386</ele>
        <time>2018-02-04T11:20:16Z</time>
      </trkpt>
      <trkpt lat="43.51529" lon="5.88605">
        <ele>385</ele>
        <time>2018-02-04T11:20:20Z</time>
      </trkpt>
      <trkpt lat="43.51507" lon="5.88618">
        <ele>385</ele>
        <time>2018-02-04T11:20:24Z</time>
      </trkpt>
      <trkpt lat="43.51488" lon="5.88624">
        <ele>381</ele>
        <time>2018-02-04T11:20:27Z</time>
      </trkpt>
      <trkpt lat="43.51467" lon="5.88632">
        <ele>380</ele>
        <time>2018-02-04T11:20:30Z</time>
      </trkpt>
      <trkpt lat="43.51445" lon="5.88644">
        <ele>379</ele>
        <time>2018-02-04T11:20:33Z</time>
      </trkpt>
      <trkpt lat="43.51424" lon="5.88657">
        <ele>377</ele>
        <time>2018-02-04T11:20:36Z</time>
      </trkpt>
      <trkpt lat="43.51404" lon="5.88665">
        <ele>375</ele>
        <time>2018-02-04T11:20:39Z</time>
      </trkpt>
      <trkpt lat="43.51385" lon="5.88676">
        <ele>373</ele>
        <time>2018-02-04T11:20:42Z</time>
      </trkpt>
      <trkpt lat="43.51366" lon="5.88689">
        <ele>372</ele>
        <time>2018-02-04T11:20:45Z</time>
      </trkpt>
      <trkpt lat="43.51346" lon="5.8869">
        <ele>371</ele>
        <time>2018-02-04T11:20:48Z</time>
      </trkpt>
      <trkpt lat="43.51326" lon="5.88678">
        <ele>367</ele>
        <time>2018-02-04T11:20:51Z</time>
      </trkpt>
      <trkpt lat="43.51305" lon="5.88674">
        <ele>366</ele>
        <time>2018-02-04T11:20:54Z</time>
      </trkpt>
      <trkpt lat="43.51284" lon="5.88679">
        <ele>365</ele>
        <time>2018-02-04T11:20:57Z</time>
      </trkpt>
      <trkpt lat="43.51265" lon="5.8869">
        <ele>364</ele>
        <time>2018-02-04T11:21:00Z</time>
      </trkpt>
      <trkpt lat="43.51246" lon="5.88703">
        <ele>361</ele>
        <time>2018-02-04T11:21:03Z</time>
      </trkpt>
      <trkpt lat="43.51227" lon="5.88713">
        <ele>360</ele>
        <time>2018-02-04T11:21:07Z</time>
      </trkpt>
      <trkpt lat="43.51208" lon="5.88709">
        <ele>360</ele>
        <time>2018-02-04T11:21:41Z</time>
      </trkpt>
      <trkpt lat="43.5119" lon="5.88705">
        <ele>360</ele>
        <time>2018-02-04T11:21:57Z</time>
      </trkpt>
      <trkpt lat="43.51171" lon="5.88702">
        <ele>360</ele>
        <time>2018-02-04T11:22:17Z</time>
      </trkpt>
      <trkpt lat="43.51152" lon="5.88697">
        <ele>361</ele>
        <time>2018-02-04T11:22:29Z</time>
      </trkpt>
      <trkpt lat="43.51143" lon="5.88675">
        <ele>360</ele>
        <time>2018-02-04T11:22:55Z</time>
      </trkpt>
      <trkpt lat="43.51125" lon="5.88669">
        <ele>361</ele>
        <time>2018-02-04T11:23:13Z</time>
      </trkpt>
      <trkpt lat="43.51107" lon="5.8866">
        <ele>358</ele>
        <time>2018-02-04T11:23:29Z</time>
      </trkpt>
      <trkpt lat="43.51104" lon="5.88635">
        <ele>358</ele>
        <time>2018-02-04T11:23:46Z</time>
      </trkpt>
      <trkpt lat="43.511" lon="5.88611">
        <ele>357</ele>
        <time>2018-02-04T11:24:01Z</time>
      </trkpt>
      <trkpt lat="43.51095" lon="5.88586">
        <ele>355</ele>
        <time>2018-02-04T11:24:10Z</time>
      </trkpt>
      <trkpt lat="43.51099" lon="5.88558">
        <ele>354</ele>
        <time>2018-02-04T11:28:47Z</time>
      </trkpt>
      <trkpt lat="43.51081" lon="5.88545">
        <ele>351</ele>
        <time>2018-02-04T11:42:24Z</time>
      </trkpt>
      <trkpt lat="43.51064" lon="5.88529">
        <ele>350</ele>
        <time>2018-02-04T11:42:30Z</time>
      </trkpt>
      <trkpt lat="43.51048" lon="5.88517">
        <ele>349</ele>
        <time>2018-02-04T11:42:35Z</time>
      </trkpt>
      <trkpt lat="43.51028" lon="5.88504">
        <ele>347</ele>
        <time>2018-02-04T11:42:40Z</time>
      </trkpt>
      <trkpt lat="43.51008" lon="5.88497">
        <ele>342</ele>
        <time>2018-02-04T11:42:45Z</time>
      </trkpt>
      <trkpt lat="43.50989" lon="5.88497">
        <ele>341</ele>
        <time>2018-02-04T11:42:49Z</time>
      </trkpt>
      <trkpt lat="43.50968" lon="5.88495">
        <ele>341</ele>
        <time>2018-02-04T11:42:53Z</time>
      </trkpt>
      <trkpt lat="43.50949" lon="5.88497">
        <ele>341</ele>
        <time>2018-02-04T11:42:57Z</time>
      </trkpt>
      <trkpt lat="43.50932" lon="5.88494">
        <ele>342</ele>
        <time>2018-02-04T11:43:01Z</time>
      </trkpt>
      <trkpt lat="43.50916" lon="5.88481">
        <ele>340</ele>
        <time>2018-02-04T11:43:05Z</time>
      </trkpt>
      <trkpt lat="43.50904" lon="5.88462">
        <ele>339</ele>
        <time>2018-02-04T11:43:09Z</time>
      </trkpt>
      <trkpt lat="43.50888" lon="5.8845">
        <ele>338</ele>
        <time>2018-02-04T11:43:13Z</time>
      </trkpt>
      <trkpt lat="43.50872" lon="5.88438">
        <ele>337</ele>
        <time>2018-02-04T11:43:17Z</time>
      </trkpt>
      <trkpt lat="43.50856" lon="5.88425">
        <ele>335</ele>
        <time>2018-02-04T11:43:21Z</time>
      </trkpt>
      <trkpt lat="43.50839" lon="5.88412">
        <ele>330</ele>
        <time>2018-02-04T11:43:25Z</time>
      </trkpt>
      <trkpt lat="43.50822" lon="5.88399">
        <ele>329</ele>
        <time>2018-02-04T11:43:29Z</time>
      </trkpt>
      <trkpt lat="43.50815" lon="5.88375">
        <ele>329</ele>
        <time>2018-02-04T11:43:33Z</time>
      </trkpt>
      <trkpt lat="43.50816" lon="5.8835">
        <ele>329</ele>
        <time>2018-02-04T11:43:37Z</time>
      </trkpt>
      <trkpt lat="43.50812" lon="5.88326">
        <ele>333</ele>
        <time>2018-02-04T11:43:41Z</time>
      </trkpt>
      <trkpt lat="43.50803" lon="5.88305">
        <ele>335</ele>
        <time>2018-02-04T11:43:45Z</time>
      </trkpt>
      <trkpt lat="43.50786" lon="5.88293">
        <ele>335</ele>
        <time>2018-02-04T11:43:50Z</time>
      </trkpt>
      <trkpt lat="43.50767" lon="5.88291">
        <ele>335</ele>
        <time>2018-02-04T11:43:55Z</time>
      </trkpt>
      <trkpt lat="43.50746" lon="5.88305">
        <ele>335</ele>
        <time>2018-02-04T11:44:00Z</time>
      </trkpt>
      <trkpt lat="43.50733" lon="5.88325">
        <ele>332</ele>
        <time>2018-02-04T11:44:05Z</time>
      </trkpt>
      <trkpt lat="43.50724" lon="5.88349">
        <ele>328</ele>
        <time>2018-02-04T11:44:10Z</time>
      </trkpt>
      <trkpt lat="43.50711" lon="5.88373">
        <ele>329</ele>
        <time>2018-02-04T11:44:15Z</time>
      </trkpt>
      <trkpt lat="43.50698" lon="5.88393">
        <ele>327</ele>
        <time>2018-02-04T11:44:20Z</time>
      </trkpt>
      <trkpt lat="43.50686" lon="5.88419">
        <ele>325</ele>
        <time>2018-02-04T11:44:25Z</time>
      </trkpt>
      <trkpt lat="43.50667" lon="5.88434">
        <ele>323</ele>
        <time>2018-02-04T11:44:30Z</time>
      </trkpt>
      <trkpt lat="43.50649" lon="5.88439">
        <ele>323</ele>
        <time>2018-02-04T11:44:34Z</time>
      </trkpt>
      <trkpt lat="43.5063" lon="5.8845">
        <ele>324</ele>
        <time>2018-02-04T11:44:39Z</time>
      </trkpt>
      <trkpt lat="43.5061" lon="5.88452">
        <ele>325</ele>
        <time>2018-02-04T11:44:43Z</time>
      </trkpt>
      <trkpt lat="43.50589" lon="5.88463">
        <ele>324</ele>
        <time>2018-02-04T11:44:48Z</time>
      </trkpt>
      <trkpt lat="43.50572" lon="5.8848">
        <ele>325</ele>
        <time>2018-02-04T11:44:52Z</time>
      </trkpt>
      <trkpt lat="43.50558" lon="5.88502">
        <ele>322</ele>
        <time>2018-02-04T11:44:56Z</time>
      </trkpt>
      <trkpt lat="43.50544" lon="5.88524">
        <ele>322</ele>
        <time>2018-02-04T11:45:00Z</time>
      </trkpt>
      <trkpt lat="43.50528" lon="5.88543">
        <ele>322</ele>
        <time>2018-02-04T11:45:04Z</time>
      </trkpt>
      <trkpt lat="43.50509" lon="5.88557">
        <ele>320</ele>
        <time>2018-02-04T11:45:08Z</time>
      </trkpt>
      <trkpt lat="43.50493" lon="5.88568">
        <ele>318</ele>
        <time>2018-02-04T11:45:12Z</time>
      </trkpt>
      <trkpt lat="43.50476" lon="5.88579">
        <ele>319</ele>
        <time>2018-02-04T11:45:16Z</time>
      </trkpt>
      <trkpt lat="43.50459" lon="5.88592">
        <ele>317</ele>
        <time>2018-02-04T11:45:20Z</time>
      </trkpt>
      <trkpt lat="43.50441" lon="5.88604">
        <ele>317</ele>
        <time>2018-02-04T11:45:24Z</time>
      </trkpt>
      <trkpt lat="43.50424" lon="5.88615">
        <ele>317</ele>
        <time>2018-02-04T11:45:28Z</time>
      </trkpt>
      <trkpt lat="43.50406" lon="5.88623">
        <ele>313</ele>
        <time>2018-02-04T11:45:32Z</time>
      </trkpt>
      <trkpt lat="43.50389" lon="5.88634">
        <ele>312</ele>
        <time>2018-02-04T11:45:36Z</time>
      </trkpt>
      <trkpt lat="43.50374" lon="5.88648">
        <ele>311</ele>
        <time>2018-02-04T11:45:40Z</time>
      </trkpt>
      <trkpt lat="43.50363" lon="5.8867">
        <ele>309</ele>
        <time>2018-02-04T11:45:45Z</time>
      </trkpt>
      <trkpt lat="43.50365" lon="5.88697">
        <ele>309</ele>
        <time>2018-02-04T11:49:19Z</time>
      </trkpt>
    </trkseg>
  </trk>
</gpx>